| time (UTC) | temp F | wind direction | speed MPH | gust MPH | rain 1hr in | rain 24hr in | rain mn in | humidity % | barometer mb |
| 20260504160418 | 80 | 273 | 3.0 | 2.0 | 0.00 | 0.00 | 0.00 | 99 | 1009.8 |
| 20260504160318 | 80 | 273 | 2.0 | 2.0 | 0.00 | 0.00 | 0.00 | 99 | 1009.7 |
| 20260504160218 | 80 | 272 | 2.0 | 3.0 | 0.00 | 0.00 | 0.00 | 99 | 1009.7 |
| 20260504160118 | 80 | 272 | 3.0 | 3.0 | 0.00 | 0.00 | 0.00 | 99 | 1009.7 |
| 20260504151117 | 81 | 272 | 1.0 | 1.0 | 0.00 | 0.00 | 0.00 | 99 | 1009.2 |
| 20260504151017 | 81 | 272 | 1.0 | 1.0 | 0.00 | 0.00 | 0.00 | 99 | 1009.2 |
| 20260504150917 | 81 | 272 | 1.0 | 1.0 | 0.00 | 0.00 | 0.00 | 99 | 1009.2 |
| 20260504150817 | 81 | 272 | 1.0 | 1.0 | 0.00 | 0.00 | 0.00 | 99 | 1009.2 |
| 20260504150717 | 81 | 272 | 1.0 | 1.0 | 0.00 | 0.00 | 0.00 | 99 | 1009.2 |
| 20260504150617 | 81 | 272 | 1.0 | 1.0 | 0.00 | 0.00 | 0.00 | 99 | 1009.2 |
| 20260504150518 | 81 | 272 | 1.0 | 3.0 | 0.00 | 0.00 | 0.00 | 99 | 1009.1 |
| 20260504150417 | 81 | 272 | 1.0 | 2.0 | 0.00 | 0.00 | 0.00 | 99 | 1009.1 |
| 20260504150317 | 81 | 272 | 2.0 | 1.0 | 0.00 | 0.00 | 0.00 | 99 | 1009.1 |
| 20260504150217 | 81 | 272 | 1.0 | 2.0 | 0.00 | 0.00 | 0.00 | 99 | 1009.1 |
| 20260504150117 | 81 | 272 | 2.0 | 2.0 | 0.00 | 0.00 | 0.00 | 99 | 1009.1 |
| 20260504141317 | 82 | 182 | 1.0 | 0.0 | 0.00 | 0.00 | 0.00 | 99 | 1008.4 |
| 20260504141217 | 82 | 182 | 0.0 | 0.0 | 0.00 | 0.00 | 0.00 | 99 | 1008.4 |
| 20260504141117 | 82 | 132 | 0.0 | 0.0 | 0.00 | 0.00 | 0.00 | 99 | 1008.4 |
| 20260504141017 | 82 | 106 | 0.0 | 0.0 | 0.00 | 0.00 | 0.00 | 99 | 1008.4 |
| 20260504140917 | 82 | 106 | 0.0 | 0.0 | 0.00 | 0.00 | 0.00 | 99 | 1008.3 |
| 20260504140817 | 82 | 106 | 0.0 | 0.0 | 0.00 | 0.00 | 0.00 | 99 | 1008.3 |
| 20260504140732 | 82 | 106 | 0.0 | 0.0 | 0.00 | 0.00 | 0.00 | 99 | 1008.3 |
| 20260504140727 | 82 | 106 | 0.0 | 0.0 | 0.00 | 0.00 | 0.00 | 99 | 1008.3 |
| 20260504140547 | 82 | 106 | 0.0 | 0.0 | 0.00 | 0.00 | 0.00 | 99 | 1008.3 |
| 20260504140531 | 82 | 106 | 0.0 | 0.0 | 0.00 | 0.00 | 0.00 | 99 | 1008.3 |
| 20260504140529 | 82 | 106 | 0.0 | 0.0 | 0.00 | 0.00 | 0.00 | 99 | 1008.3 |
| 20260504140118 | 82 | 106 | 0.0 | 0.0 | 0.00 | 0.00 | 0.00 | 99 | 1008.3 |
| 20260504140112 | 82 | 106 | 0.0 | 0.0 | 0.00 | 0.00 | 0.00 | 99 | 1008.3 |
| 20260504140107 | 82 | 106 | 0.0 | 0.0 | 0.00 | 0.00 | 0.00 | 99 | 1008.2 |
| 20260504140105 | 82 | 106 | 0.0 | 0.0 | 0.00 | 0.00 | 0.00 | 99 | 1008.2 |
| 20260504130806 | 83 | 106 | 0.0 | 0.0 | 0.00 | 0.00 | 0.00 | 96 | 1007.5 |
| 20260504130800 | 83 | 106 | 0.0 | 0.0 | 0.00 | 0.00 | 0.00 | 97 | 1007.5 |
| 20260504110705 | 86 | 62 | 3.0 | 2.0 | 0.00 | 0.00 | 0.00 | 90 | 1006.3 |
| 20260504110643 | 86 | 78 | 2.0 | 2.0 | 0.00 | 0.00 | 0.00 | 90 | 1006.3 |
| 20260504110554 | 86 | 54 | 2.0 | 2.0 | 0.00 | 0.00 | 0.00 | 90 | 1006.3 |
| 20260504110404 | 86 | 54 | 2.0 | 2.0 | 0.00 | 0.00 | 0.00 | 90 | 1006.3 |
| 20260504110307 | 86 | 57 | 3.0 | 3.0 | 0.00 | 0.00 | 0.00 | 90 | 1006.3 |
| 20260504110107 | 86 | 71 | 3.0 | 3.0 | 0.00 | 0.00 | 0.00 | 90 | 1006.3 |
| 20260504110105 | 86 | 39 | 3.0 | 4.0 | 0.00 | 0.00 | 0.00 | 90 | 1006.3 |
| 20260504100354 | 88 | 354 | 1.0 | 0.0 | 0.00 | 0.00 | 0.00 | 87 | 1006.0 |
| 20260504100244 | 88 | 351 | 0.0 | 0.0 | 0.00 | 0.00 | 0.00 | 87 | 1006.0 |
| 20260504090127 | 89 | 282 | 0.0 | 1.0 | 0.00 | 0.00 | 0.00 | 84 | 1005.6 |
| 20260504080808 | 83 | 263 | 0.0 | 2.0 | 0.00 | 0.00 | 0.00 | 97 | 1006.6 |
| 20260504080706 | 83 | 260 | 2.0 | 1.0 | 0.00 | 0.00 | 0.00 | 98 | 1006.6 |
| 20260504080606 | 83 | 291 | 1.0 | 1.0 | 0.00 | 0.00 | 0.00 | 99 | 1006.6 |
| 20260504080506 | 83 | 257 | 1.0 | 0.0 | 0.00 | 0.00 | 0.00 | 99 | 1006.6 |
| 20260504080406 | 83 | 253 | 0.0 | 0.0 | 0.00 | 0.00 | 0.00 | 98 | 1006.6 |
| 20260504080306 | 83 | 253 | 0.0 | 0.0 | 0.00 | 0.00 | 0.00 | 99 | 1006.6 |
| 20260504080206 | 82 | 177 | 0.0 | 0.0 | 0.00 | 0.00 | 0.00 | 99 | 1006.6 |
| 20260504080106 | 82 | 177 | 0.0 | 0.0 | 0.00 | 0.00 | 0.00 | 98 | 1006.7 |
| 20260504070405 | 89 | 20 | 6.0 | 6.0 | 0.00 | 0.00 | 0.00 | 86 | 1007.6 |
| 20260504070305 | 89 | 5 | 6.0 | 7.0 | 0.00 | 0.00 | 0.00 | 86 | 1007.7 |
| 20260504070205 | 89 | 23 | 7.0 | 7.0 | 0.00 | 0.00 | 0.00 | 86 | 1007.7 |
| 20260504070105 | 89 | 0 | 7.0 | 6.0 | 0.00 | 0.00 | 0.00 | 86 | 1007.7 |
| 20260504060205 | 89 | 0 | 5.0 | 7.0 | 0.00 | 0.00 | 0.00 | 86 | 1008.7 |
| 20260504060105 | 89 | 0 | 7.0 | 8.0 | 0.00 | 0.00 | 0.00 | 85 | 1008.7 |
| 20260504050704 | 81 | 342 | 4.0 | 4.0 | 0.00 | 0.00 | 0.00 | 96 | 1010.0 |
| 20260504050604 | 81 | 355 | 4.0 | 3.0 | 0.00 | 0.00 | 0.00 | 96 | 1010.0 |
| 20260504050504 | 81 | 355 | 3.0 | 4.0 | 0.00 | 0.00 | 0.00 | 96 | 1010.0 |
| 20260504050404 | 81 | 355 | 5.0 | 6.0 | 0.00 | 0.00 | 0.00 | 95 | 1010.1 |
| 20260504050304 | 81 | 22 | 6.0 | 5.0 | 0.00 | 0.00 | 0.00 | 96 | 1010.1 |
| 20260504050204 | 81 | 6 | 5.0 | 4.0 | 0.00 | 0.00 | 0.00 | 98 | 1010.1 |
| 20260504050123 | 81 | 344 | 1.0 | 1.0 | 0.00 | 0.00 | 0.00 | 98 | 1010.2 |
| 20260504045904 | 81 | 326 | 1.0 | 3.0 | 0.00 | 0.00 | 0.00 | 97 | 1010.2 |
| 20260504045804 | 81 | 328 | 3.0 | 4.0 | 0.00 | 0.00 | 0.00 | 98 | 1010.2 |
| 20260504045704 | 81 | 321 | 4.0 | 3.0 | 0.00 | 0.00 | 0.00 | 98 | 1010.2 |
| 20260504045604 | 80 | 330 | 3.0 | 3.0 | 0.00 | 0.00 | 0.00 | 99 | 1010.3 |
| 20260504045504 | 80 | 328 | 3.0 | 7.0 | 0.00 | 0.00 | 0.00 | 98 | 1010.3 |
| 20260504045404 | 80 | 353 | 4.0 | 4.0 | 0.00 | 0.00 | 0.00 | 98 | 1010.3 |
| 20260504045304 | 80 | 355 | 4.0 | 3.0 | 0.00 | 0.00 | 0.00 | 99 | 1010.3 |
| 20260504045204 | 80 | 355 | 3.0 | 4.0 | 0.00 | 0.00 | 0.00 | 98 | 1010.3 |
| 20260504045104 | 80 | 350 | 4.0 | 5.0 | 0.00 | 0.00 | 0.00 | 99 | 1010.3 |
| 20260504045004 | 80 | 348 | 5.0 | 5.0 | 0.00 | 0.00 | 0.00 | 99 | 1010.3 |
| 20260504044904 | 80 | 351 | 5.0 | 4.0 | 0.00 | 0.00 | 0.00 | 99 | 1010.3 |
| 20260504044804 | 80 | 335 | 4.0 | 4.0 | 0.00 | 0.00 | 0.00 | 99 | 1010.3 |
| 20260504044704 | 80 | 0 | 4.0 | 7.0 | 0.00 | 0.00 | 0.00 | 99 | 1010.3 |
| 20260504044604 | 80 | 18 | 7.0 | 6.0 | 0.00 | 0.00 | 0.00 | 99 | 1010.3 |
| 20260504044523 | 80 | 15 | 6.0 | 11.0 | 0.00 | 0.00 | 0.00 | 99 | 1010.3 |
| 20260504044404 | 80 | 35 | 8.0 | 8.0 | 0.00 | 0.00 | 0.00 | 99 | 1010.3 |
| 20260504044304 | 80 | 30 | 8.0 | 7.0 | 0.00 | 0.00 | 0.00 | 99 | 1010.3 |
| 20260504044206 | 80 | 47 | 7.0 | 6.0 | 0.00 | 0.00 | 0.00 | 99 | 1010.3 |
| 20260504044106 | 80 | 44 | 6.0 | 8.0 | 0.00 | 0.00 | 0.00 | 99 | 1010.3 |
| 20260504044004 | 80 | 9 | 8.0 | 5.0 | 0.00 | 0.00 | 0.00 | 99 | 1010.3 |
| 20260504043911 | 80 | 231 | 5.0 | 4.0 | 0.00 | 0.00 | 0.00 | 99 | 1010.2 |
| 20260504043804 | 80 | 330 | 4.0 | 7.0 | 0.00 | 0.00 | 0.00 | 99 | 1010.2 |
| 20260504043704 | 80 | 328 | 7.0 | 10.0 | 0.00 | 0.00 | 0.00 | 99 | 1010.2 |
| 20260504043604 | 80 | 328 | 10.0 | 8.0 | 0.00 | 0.00 | 0.00 | 99 | 1010.2 |
| 20260504043504 | 80 | 338 | 8.0 | 11.0 | 0.00 | 0.00 | 0.00 | 99 | 1010.2 |
| 20260504043404 | 80 | 353 | 7.0 | 8.0 | 0.00 | 0.00 | 0.00 | 99 | 1010.2 |
| 20260504043304 | 80 | 355 | 8.0 | 12.0 | 0.00 | 0.00 | 0.00 | 99 | 1010.2 |
| 20260504043204 | 80 | 355 | 12.0 | 10.0 | 0.00 | 0.00 | 0.00 | 99 | 1010.2 |
| 20260504043104 | 80 | 355 | 10.0 | 14.0 | 0.00 | 0.00 | 0.00 | 99 | 1010.2 |
| 20260504043010 | 80 | 298 | 14.0 | 11.0 | 0.00 | 0.00 | 0.00 | 99 | 1010.2 |
| 20260504042904 | 81 | 5 | 11.0 | 13.0 | 0.00 | 0.00 | 0.00 | 99 | 1010.1 |
| 20260504042804 | 81 | 22 | 13.0 | 15.0 | 0.00 | 0.00 | 0.00 | 99 | 1010.1 |
| 20260504042704 | 82 | 55 | 15.0 | 18.0 | 0.00 | 0.00 | 0.00 | 98 | 1010.1 |
| 20260504042604 | 83 | 50 | 18.0 | 23.0 | 0.00 | 0.00 | 0.00 | 96 | 1010.0 |
| 20260504042504 | 85 | 78 | 23.0 | 2.0 | 0.00 | 0.00 | 0.00 | 93 | 1010.0 |
| 20260504042404 | 86 | 103 | 12.0 | 8.0 | 0.00 | 0.00 | 0.00 | 91 | 1009.9 |
| 20260504042304 | 87 | 108 | 8.0 | 8.0 | 0.00 | 0.00 | 0.00 | 87 | 1009.8 |
| 20260504042204 | 87 | 60 | 8.0 | 9.0 | 0.00 | 0.00 | 0.00 | 85 | 1009.8 |
| 20260504042104 | 88 | 44 | 9.0 | 8.0 | 0.00 | 0.00 | 0.00 | 84 | 1009.7 |
| 20260504042004 | 88 | 53 | 8.0 | 8.0 | 0.00 | 0.00 | 0.00 | 83 | 1009.7 |
| 20260504041905 | 89 | 60 | 8.0 | 6.0 | 0.00 | 0.00 | 0.00 | 82 | 1009.7 |
| 20260504041804 | 89 | 58 | 6.0 | 7.0 | 0.00 | 0.00 | 0.00 | 82 | 1009.6 |
| 20260504041704 | 90 | 52 | 7.0 | 6.0 | 0.00 | 0.00 | 0.00 | 81 | 1009.6 |
| 20260504041604 | 90 | 47 | 6.0 | 4.0 | 0.00 | 0.00 | 0.00 | 78 | 1009.6 |
| 20260504041510 | 90 | 62 | 4.0 | 2.0 | 0.00 | 0.00 | 0.00 | 76 | 1009.6 |
| 20260504041404 | 90 | 82 | 2.0 | 2.0 | 0.00 | 0.00 | 0.00 | 75 | 1009.6 |
| 20260504041306 | 90 | 107 | 2.0 | 0.0 | 0.00 | 0.00 | 0.00 | 75 | 1009.6 |
| 20260504041204 | 90 | 113 | 0.0 | 2.0 | 0.00 | 0.00 | 0.00 | 75 | 1009.6 |
| 20260504041104 | 91 | 135 | 2.0 | 0.0 | 0.00 | 0.00 | 0.00 | 75 | 1009.6 |
| 20260504041004 | 91 | 89 | 0.0 | 0.0 | 0.00 | 0.00 | 0.00 | 75 | 1009.6 |
| 20260504040904 | 91 | 116 | 0.0 | 1.0 | 0.00 | 0.00 | 0.00 | 75 | 1009.7 |
| 20260504040804 | 91 | 118 | 1.0 | 0.0 | 0.00 | 0.00 | 0.00 | 75 | 1009.7 |
| 20260504040704 | 91 | 196 | 0.0 | 1.0 | 0.00 | 0.00 | 0.00 | 76 | 1009.7 |
| 20260504040604 | 91 | 262 | 1.0 | 3.0 | 0.00 | 0.00 | 0.00 | 75 | 1009.7 |
| 20260504040504 | 91 | 262 | 3.0 | 3.0 | 0.00 | 0.00 | 0.00 | 75 | 1009.7 |
| 20260504040404 | 91 | 253 | 4.0 | 3.0 | 0.00 | 0.00 | 0.00 | 74 | 1009.7 |
| 20260504040303 | 91 | 281 | 3.0 | 2.0 | 0.00 | 0.00 | 0.00 | 75 | 1009.7 |
| 20260504040203 | 91 | 242 | 2.0 | 1.0 | 0.00 | 0.00 | 0.00 | 75 | 1009.7 |
| 20260504040103 | 91 | 230 | 1.0 | 0.0 | 0.00 | 0.00 | 0.00 | 75 | 1009.7 |
| 20260504040005 | 91 | 191 | 0.0 | 3.0 | 0.00 | 0.00 | 0.00 | 75 | 1009.7 |
| 20260504035903 | 91 | 191 | 3.0 | 3.0 | 0.00 | 0.00 | 0.00 | 75 | 1009.7 |
| 20260504035804 | 91 | 148 | 3.0 | 4.0 | 0.00 | 0.00 | 0.00 | 75 | 1009.7 |
| 20260504035703 | 91 | 111 | 4.0 | 4.0 | 0.00 | 0.00 | 0.00 | 74 | 1009.7 |
| 20260504035603 | 91 | 147 | 4.0 | 1.0 | 0.00 | 0.00 | 0.00 | 74 | 1009.7 |
| 20260504035504 | 91 | 137 | 1.0 | 2.0 | 0.00 | 0.00 | 0.00 | 74 | 1009.7 |
| 20260504035405 | 91 | 78 | 4.0 | 4.0 | 0.00 | 0.00 | 0.00 | 73 | 1009.7 |
| 20260504035305 | 92 | 106 | 4.0 | 4.0 | 0.00 | 0.00 | 0.00 | 74 | 1009.7 |
| 20260504035203 | 92 | 113 | 4.0 | 5.0 | 0.00 | 0.00 | 0.00 | 73 | 1009.7 |
| 20260504035103 | 92 | 113 | 5.0 | 3.0 | 0.00 | 0.00 | 0.00 | 73 | 1009.8 |
| 20260504035003 | 92 | 125 | 3.0 | 0.0 | 0.00 | 0.00 | 0.00 | 73 | 1009.8 |
| 20260504034906 | 92 | 163 | 0.0 | 1.0 | 0.00 | 0.00 | 0.00 | 73 | 1009.8 |
| 20260504034803 | 92 | 237 | 1.0 | 2.0 | 0.00 | 0.00 | 0.00 | 73 | 1009.8 |
| 20260504034703 | 92 | 237 | 2.0 | 0.0 | 0.00 | 0.00 | 0.00 | 74 | 1009.8 |
| 20260504034603 | 91 | 217 | 0.0 | 0.0 | 0.00 | 0.00 | 0.00 | 75 | 1009.8 |
| 20260504034503 | 91 | 141 | 0.0 | 4.0 | 0.00 | 0.00 | 0.00 | 73 | 1009.8 |
| 20260504034415 | 91 | 79 | 1.0 | 3.0 | 0.00 | 0.00 | 0.00 | 73 | 1009.9 |
| 20260504034303 | 91 | 78 | 3.0 | 4.0 | 0.00 | 0.00 | 0.00 | 74 | 1009.9 |
| 20260504034203 | 91 | 148 | 4.0 | 3.0 | 0.00 | 0.00 | 0.00 | 74 | 1009.9 |
| 20260504034103 | 91 | 138 | 3.0 | 2.0 | 0.00 | 0.00 | 0.00 | 76 | 1009.9 |
| 20260504034003 | 91 | 187 | 2.0 | 3.0 | 0.00 | 0.00 | 0.00 | 75 | 1009.9 |
| 20260504033903 | 91 | 193 | 3.0 | 4.0 | 0.00 | 0.00 | 0.00 | 74 | 1009.9 |
| 20260504033803 | 91 | 141 | 4.0 | 4.0 | 0.00 | 0.00 | 0.00 | 76 | 1009.9 |
| 20260504033703 | 91 | 172 | 4.0 | 3.0 | 0.00 | 0.00 | 0.00 | 76 | 1009.9 |
| 20260504033603 | 91 | 134 | 3.0 | 3.0 | 0.00 | 0.00 | 0.00 | 76 | 1009.9 |
| 20260504033503 | 91 | 187 | 3.0 | 3.0 | 0.00 | 0.00 | 0.00 | 77 | 1009.9 |
| 20260504033403 | 90 | 179 | 5.0 | 5.0 | 0.00 | 0.00 | 0.00 | 77 | 1009.9 |
| 20260504033334 | 90 | 180 | 5.0 | 2.0 | 0.00 | 0.00 | 0.00 | 77 | 1009.9 |
| 20260504033243 | 90 | 164 | 2.0 | 3.0 | 0.00 | 0.00 | 0.00 | 77 | 1009.9 |
| 20260504033126 | 90 | 184 | 3.0 | 3.0 | 0.00 | 0.00 | 0.00 | 76 | 1009.9 |
| 20260504033026 | 90 | 203 | 3.0 | 4.0 | 0.00 | 0.00 | 0.00 | 77 | 1009.9 |
| 20260504032903 | 90 | 170 | 4.0 | 3.0 | 0.00 | 0.00 | 0.00 | 78 | 1009.9 |
| 20260504032805 | 90 | 134 | 3.0 | 4.0 | 0.00 | 0.00 | 0.00 | 79 | 1009.9 |
| 20260504032703 | 90 | 165 | 4.0 | 3.0 | 0.00 | 0.00 | 0.00 | 79 | 1009.9 |
| 20260504032603 | 90 | 157 | 3.0 | 4.0 | 0.00 | 0.00 | 0.00 | 78 | 1009.9 |
| 20260504032503 | 90 | 142 | 4.0 | 2.0 | 0.00 | 0.00 | 0.00 | 78 | 1009.9 |
| 20260504032406 | 90 | 163 | 2.0 | 4.0 | 0.00 | 0.00 | 0.00 | 79 | 1009.9 |
| 20260504032304 | 90 | 189 | 4.0 | 5.0 | 0.00 | 0.00 | 0.00 | 79 | 1010.0 |
| 20260504032203 | 90 | 184 | 5.0 | 3.0 | 0.00 | 0.00 | 0.00 | 78 | 1010.0 |
| 20260504032103 | 90 | 174 | 3.0 | 2.0 | 0.00 | 0.00 | 0.00 | 79 | 1010.0 |
| 20260504032003 | 90 | 145 | 2.0 | 1.0 | 0.00 | 0.00 | 0.00 | 79 | 1010.0 |
| 20260504031903 | 90 | 73 | 1.0 | 1.0 | 0.00 | 0.00 | 0.00 | 80 | 1010.0 |
| 20260504031803 | 90 | 116 | 1.0 | 1.0 | 0.00 | 0.00 | 0.00 | 80 | 1010.0 |
| 20260504031703 | 90 | 24 | 1.0 | 0.0 | 0.00 | 0.00 | 0.00 | 79 | 1010.0 |
| 20260504031603 | 90 | 24 | 0.0 | 1.0 | 0.00 | 0.00 | 0.00 | 80 | 1010.0 |
| 20260504031536 | 90 | 149 | 1.0 | 3.0 | 0.00 | 0.00 | 0.00 | 80 | 1010.1 |
| 20260504031403 | 90 | 149 | 3.0 | 3.0 | 0.00 | 0.00 | 0.00 | 80 | 1010.1 |
| 20260504031303 | 90 | 136 | 3.0 | 4.0 | 0.00 | 0.00 | 0.00 | 80 | 1010.1 |
| 20260504031203 | 90 | 147 | 4.0 | 2.0 | 0.00 | 0.00 | 0.00 | 79 | 1010.1 |
| 20260504031103 | 90 | 145 | 2.0 | 3.0 | 0.00 | 0.00 | 0.00 | 81 | 1010.1 |
| 20260504031003 | 90 | 89 | 3.0 | 1.0 | 0.00 | 0.00 | 0.00 | 80 | 1010.1 |
| 20260504030903 | 89 | 202 | 1.0 | 2.0 | 0.00 | 0.00 | 0.00 | 81 | 1010.1 |
| 20260504030803 | 89 | 193 | 2.0 | 4.0 | 0.00 | 0.00 | 0.00 | 80 | 1010.1 |
| 20260504030703 | 89 | 170 | 4.0 | 2.0 | 0.00 | 0.00 | 0.00 | 80 | 1010.1 |
| 20260504030603 | 89 | 144 | 2.0 | 2.0 | 0.00 | 0.00 | 0.00 | 81 | 1010.1 |
| 20260504030503 | 89 | 148 | 2.0 | 2.0 | 0.00 | 0.00 | 0.00 | 80 | 1010.1 |
| 20260504030403 | 89 | 151 | 4.0 | 5.0 | 0.00 | 0.00 | 0.00 | 79 | 1010.1 |
| 20260504030303 | 89 | 153 | 5.0 | 5.0 | 0.00 | 0.00 | 0.00 | 80 | 1010.1 |
| 20260504030203 | 89 | 152 | 5.0 | 3.0 | 0.00 | 0.00 | 0.00 | 82 | 1010.1 |
| 20260504030009 | 89 | 67 | 2.0 | 4.0 | 0.00 | 0.00 | 0.00 | 81 | 1010.2 |
| 20260504025903 | 89 | 119 | 4.0 | 2.0 | 0.00 | 0.00 | 0.00 | 82 | 1010.2 |
| 20260504025803 | 89 | 151 | 2.0 | 2.0 | 0.00 | 0.00 | 0.00 | 83 | 1010.2 |
| 20260504025703 | 89 | 176 | 2.0 | 1.0 | 0.00 | 0.00 | 0.00 | 83 | 1010.2 |
| 20260504025603 | 88 | 188 | 1.0 | 2.0 | 0.00 | 0.00 | 0.00 | 84 | 1010.2 |
| 20260504025503 | 88 | 168 | 2.0 | 3.0 | 0.00 | 0.00 | 0.00 | 84 | 1010.2 |
| 20260504025403 | 88 | 163 | 4.0 | 1.0 | 0.00 | 0.00 | 0.00 | 84 | 1010.2 |
| 20260504025304 | 88 | 175 | 1.0 | 2.0 | 0.00 | 0.00 | 0.00 | 84 | 1010.2 |
| 20260504025203 | 88 | 138 | 2.0 | 3.0 | 0.00 | 0.00 | 0.00 | 82 | 1010.2 |
| 20260504025103 | 88 | 132 | 3.0 | 3.0 | 0.00 | 0.00 | 0.00 | 83 | 1010.2 |
| 20260504025003 | 89 | 98 | 3.0 | 4.0 | 0.00 | 0.00 | 0.00 | 83 | 1010.2 |
| 20260504024903 | 88 | 111 | 4.0 | 2.0 | 0.00 | 0.00 | 0.00 | 83 | 1010.2 |
| 20260504024803 | 88 | 129 | 2.0 | 3.0 | 0.00 | 0.00 | 0.00 | 84 | 1010.2 |
| 20260504024703 | 88 | 133 | 3.0 | 4.0 | 0.00 | 0.00 | 0.00 | 84 | 1010.2 |
| 20260504024603 | 88 | 52 | 4.0 | 3.0 | 0.00 | 0.00 | 0.00 | 84 | 1010.2 |
| 20260504024517 | 88 | 70 | 3.0 | 3.0 | 0.00 | 0.00 | 0.00 | 84 | 1010.2 |
| 20260504024403 | 88 | 79 | 3.0 | 2.0 | 0.00 | 0.00 | 0.00 | 83 | 1010.2 |
| 20260504024305 | 88 | 102 | 2.0 | 4.0 | 0.00 | 0.00 | 0.00 | 85 | 1010.2 |
| 20260504024203 | 88 | 75 | 4.0 | 5.0 | 0.00 | 0.00 | 0.00 | 85 | 1010.2 |
| 20260504024108 | 88 | 77 | 5.0 | 4.0 | 0.00 | 0.00 | 0.00 | 85 | 1010.2 |
| 20260504024003 | 88 | 64 | 4.0 | 5.0 | 0.00 | 0.00 | 0.00 | 85 | 1010.2 |
| 20260504023904 | 88 | 87 | 5.0 | 4.0 | 0.00 | 0.00 | 0.00 | 85 | 1010.2 |
| 20260504023803 | 88 | 94 | 4.0 | 1.0 | 0.00 | 0.00 | 0.00 | 85 | 1010.2 |
| 20260504023703 | 88 | 112 | 1.0 | 4.0 | 0.00 | 0.00 | 0.00 | 85 | 1010.2 |
| 20260504023603 | 88 | 150 | 4.0 | 2.0 | 0.00 | 0.00 | 0.00 | 84 | 1010.2 |
| 20260504023503 | 88 | 118 | 2.0 | 2.0 | 0.00 | 0.00 | 0.00 | 86 | 1010.2 |
| 20260504023403 | 88 | 152 | 2.0 | 2.0 | 0.00 | 0.00 | 0.00 | 86 | 1010.2 |
| 20260504023303 | 88 | 173 | 2.0 | 3.0 | 0.00 | 0.00 | 0.00 | 86 | 1010.2 |
| 20260504023203 | 88 | 138 | 3.0 | 3.0 | 0.00 | 0.00 | 0.00 | 85 | 1010.2 |
| 20260504023103 | 88 | 161 | 3.0 | 4.0 | 0.00 | 0.00 | 0.00 | 85 | 1010.2 |
| 20260504023030 | 88 | 167 | 4.0 | 2.0 | 0.00 | 0.00 | 0.00 | 85 | 1010.2 |
| 20260504022905 | 88 | 164 | 2.0 | 2.0 | 0.00 | 0.00 | 0.00 | 85 | 1010.2 |
| 20260504022803 | 88 | 97 | 2.0 | 4.0 | 0.00 | 0.00 | 0.00 | 86 | 1010.2 |
| 20260504022703 | 88 | 123 | 4.0 | 1.0 | 0.00 | 0.00 | 0.00 | 86 | 1010.2 |
| 20260504022603 | 88 | 121 | 1.0 | 0.0 | 0.00 | 0.00 | 0.00 | 86 | 1010.2 |
| 20260504022503 | 88 | 150 | 0.0 | 1.0 | 0.00 | 0.00 | 0.00 | 86 | 1010.3 |
| 20260504022403 | 87 | 128 | 3.0 | 2.0 | 0.00 | 0.00 | 0.00 | 86 | 1010.3 |
| 20260504022304 | 87 | 85 | 2.0 | 3.0 | 0.00 | 0.00 | 0.00 | 87 | 1010.3 |
| 20260504022203 | 87 | 130 | 3.0 | 3.0 | 0.00 | 0.00 | 0.00 | 87 | 1010.3 |
| 20260504022103 | 87 | 133 | 3.0 | 1.0 | 0.00 | 0.00 | 0.00 | 88 | 1010.3 |
| 20260504022003 | 87 | 130 | 1.0 | 2.0 | 0.00 | 0.00 | 0.00 | 88 | 1010.3 |
| 20260504021903 | 87 | 199 | 2.0 | 3.0 | 0.00 | 0.00 | 0.00 | 88 | 1010.3 |
| 20260504021803 | 87 | 223 | 3.0 | 2.0 | 0.00 | 0.00 | 0.00 | 87 | 1010.3 |
| 20260504021703 | 87 | 231 | 2.0 | 4.0 | 0.00 | 0.00 | 0.00 | 88 | 1010.3 |
| 20260504021604 | 87 | 228 | 4.0 | 2.0 | 0.00 | 0.00 | 0.00 | 87 | 1010.3 |
| 20260504021405 | 87 | 191 | 0.0 | 1.0 | 0.00 | 0.00 | 0.00 | 89 | 1010.3 |
| 20260504021303 | 87 | 191 | 1.0 | 2.0 | 0.00 | 0.00 | 0.00 | 89 | 1010.3 |
| 20260504021203 | 87 | 204 | 2.0 | 3.0 | 0.00 | 0.00 | 0.00 | 88 | 1010.3 |
| 20260504021103 | 87 | 206 | 3.0 | 2.0 | 0.00 | 0.00 | 0.00 | 89 | 1010.3 |
| 20260504021003 | 87 | 215 | 2.0 | 1.0 | 0.00 | 0.00 | 0.00 | 88 | 1010.3 |
| 20260504020920 | 87 | 214 | 1.0 | 0.0 | 0.00 | 0.00 | 0.00 | 89 | 1010.3 |
| 20260504020704 | 86 | 126 | 0.0 | 0.0 | 0.00 | 0.00 | 0.00 | 89 | 1010.3 |
| 20260504020603 | 86 | 126 | 0.0 | 0.0 | 0.00 | 0.00 | 0.00 | 89 | 1010.3 |
| 20260504020502 | 86 | 125 | 0.0 | 0.0 | 0.00 | 0.00 | 0.00 | 89 | 1010.3 |
| 20260504020402 | 86 | 125 | 1.0 | 0.0 | 0.00 | 0.00 | 0.00 | 89 | 1010.3 |
| 20260504020303 | 86 | 134 | 0.0 | 0.0 | 0.00 | 0.00 | 0.00 | 90 | 1010.3 |
| 20260504020203 | 86 | 134 | 0.0 | 3.0 | 0.00 | 0.00 | 0.00 | 90 | 1010.3 |
| 20260504020006 | 86 | 157 | 1.0 | 2.0 | 0.00 | 0.00 | 0.00 | 90 | 1010.3 |
| 20260504015903 | 86 | 160 | 2.0 | 3.0 | 0.00 | 0.00 | 0.00 | 90 | 1010.3 |
| 20260504015802 | 86 | 150 | 3.0 | 2.0 | 0.00 | 0.00 | 0.00 | 90 | 1010.3 |
| 20260504015702 | 86 | 164 | 2.0 | 0.0 | 0.00 | 0.00 | 0.00 | 90 | 1010.3 |
| 20260504015353 | 86 | 251 | 1.0 | 3.0 | 0.00 | 0.00 | 0.00 | 90 | 1010.2 |
| 20260504015253 | 86 | 241 | 3.0 | 4.0 | 0.00 | 0.00 | 0.00 | 89 | 1010.2 |
| 20260504015153 | 86 | 231 | 4.0 | 2.0 | 0.00 | 0.00 | 0.00 | 90 | 1010.2 |
| 20260504015056 | 86 | 234 | 2.0 | 1.0 | 0.00 | 0.00 | 0.00 | 90 | 1010.2 |
| 20260504014953 | 86 | 211 | 1.0 | 4.0 | 0.00 | 0.00 | 0.00 | 90 | 1010.1 |
| 20260504014853 | 86 | 221 | 4.0 | 1.0 | 0.00 | 0.00 | 0.00 | 90 | 1010.1 |
| 20260504014753 | 86 | 218 | 1.0 | 0.0 | 0.00 | 0.00 | 0.00 | 91 | 1010.1 |
| 20260504014653 | 86 | 119 | 0.0 | 0.0 | 0.00 | 0.00 | 0.00 | 92 | 1010.1 |
| 20260504014453 | 86 | 119 | 0.0 | 1.0 | 0.00 | 0.00 | 0.00 | 92 | 1010.1 |
| 20260504014353 | 85 | 161 | 1.0 | 1.0 | 0.00 | 0.00 | 0.00 | 93 | 1010.0 |
| 20260504014253 | 85 | 207 | 1.0 | 1.0 | 0.00 | 0.00 | 0.00 | 92 | 1010.0 |
| 20260504014155 | 85 | 219 | 1.0 | 2.0 | 0.00 | 0.00 | 0.00 | 92 | 1010.0 |
| 20260504014053 | 85 | 223 | 2.0 | 1.0 | 0.00 | 0.00 | 0.00 | 93 | 1010.0 |
| 20260504013953 | 85 | 215 | 1.0 | 0.0 | 0.00 | 0.00 | 0.00 | 94 | 1010.0 |
| 20260504013853 | 85 | 196 | 0.0 | 0.0 | 0.00 | 0.00 | 0.00 | 94 | 1010.0 |
| 20260504013753 | 85 | 227 | 0.0 | 0.0 | 0.00 | 0.00 | 0.00 | 94 | 1009.9 |
| 20260504013657 | 85 | 198 | 0.0 | 0.0 | 0.00 | 0.00 | 0.00 | 94 | 1009.9 |
| 20260504013553 | 84 | 194 | 0.0 | 1.0 | 0.00 | 0.00 | 0.00 | 94 | 1009.9 |
| 20260504013453 | 84 | 203 | 1.0 | 0.0 | 0.00 | 0.00 | 0.00 | 95 | 1009.9 |
| 20260504013353 | 84 | 202 | 1.0 | 1.0 | 0.00 | 0.00 | 0.00 | 94 | 1009.9 |
| 20260504013306 | 84 | 199 | 1.0 | 0.0 | 0.00 | 0.00 | 0.00 | 94 | 1009.9 |
| 20260504013153 | 84 | 207 | 0.0 | 0.0 | 0.00 | 0.00 | 0.00 | 95 | 1009.9 |
| 20260504013106 | 84 | 178 | 0.0 | 0.0 | 0.00 | 0.00 | 0.00 | 96 | 1009.9 |
| 20260504012953 | 84 | 182 | 0.0 | 0.0 | 0.00 | 0.00 | 0.00 | 96 | 1009.9 |
| 20260504012853 | 84 | 236 | 0.0 | 2.0 | 0.00 | 0.00 | 0.00 | 96 | 1009.9 |
| 20260504012753 | 84 | 238 | 2.0 | 1.0 | 0.00 | 0.00 | 0.00 | 96 | 1009.9 |
| 20260504012653 | 84 | 205 | 1.0 | 2.0 | 0.00 | 0.00 | 0.00 | 95 | 1009.9 |
| 20260504012553 | 84 | 214 | 2.0 | 0.0 | 0.00 | 0.00 | 0.00 | 96 | 1009.9 |
| 20260504012453 | 84 | 191 | 0.0 | 0.0 | 0.00 | 0.00 | 0.00 | 96 | 1009.9 |
| 20260504012353 | 84 | 203 | 0.0 | 0.0 | 0.00 | 0.00 | 0.00 | 98 | 1009.9 |
| 20260504012253 | 83 | 237 | 0.0 | 0.0 | 0.00 | 0.00 | 0.00 | 98 | 1009.9 |
| 20260504012153 | 83 | 215 | 0.0 | 0.0 | 0.00 | 0.00 | 0.00 | 98 | 1009.9 |
| 20260504012053 | 83 | 187 | 0.0 | 0.0 | 0.00 | 0.00 | 0.00 | 99 | 1009.9 |
| 20260504011953 | 83 | 186 | 0.0 | 0.0 | 0.00 | 0.00 | 0.00 | 99 | 1009.9 |
| 20260504011853 | 83 | 248 | 0.0 | 0.0 | 0.00 | 0.00 | 0.00 | 99 | 1009.9 |
| 20260504011753 | 83 | 248 | 0.0 | 0.0 | 0.00 | 0.00 | 0.00 | 99 | 1009.9 |
| 20260504011653 | 83 | 248 | 0.0 | 0.0 | 0.00 | 0.00 | 0.00 | 99 | 1009.9 |
| 20260504011558 | 82 | 197 | 0.0 | 0.0 | 0.00 | 0.00 | 0.00 | 99 | 1009.9 |
| 20260504011453 | 82 | 195 | 0.0 | 0.0 | 0.00 | 0.00 | 0.00 | 99 | 1009.9 |
| 20260504011353 | 82 | 195 | 0.0 | 0.0 | 0.00 | 0.00 | 0.00 | 99 | 1009.9 |
| 20260504011253 | 82 | 207 | 0.0 | 0.0 | 0.00 | 0.00 | 0.00 | 99 | 1009.9 |
| 20260504011154 | 82 | 205 | 0.0 | 1.0 | 0.00 | 0.00 | 0.00 | 99 | 1009.9 |
| 20260504011053 | 82 | 218 | 1.0 | 0.0 | 0.00 | 0.00 | 0.00 | 99 | 1009.9 |
| 20260504010953 | 82 | 222 | 0.0 | 0.0 | 0.00 | 0.00 | 0.00 | 99 | 1009.9 |
| 20260504010910 | 82 | 224 | 0.0 | 0.0 | 0.00 | 0.00 | 0.00 | 99 | 1009.9 |
| 20260504010754 | 82 | 222 | 0.0 | 0.0 | 0.00 | 0.00 | 0.00 | 99 | 1009.8 |
| 20260504010653 | 82 | 221 | 0.0 | 0.0 | 0.00 | 0.00 | 0.00 | 99 | 1009.8 |
| 20260504010553 | 82 | 209 | 0.0 | 0.0 | 0.00 | 0.00 | 0.00 | 99 | 1009.8 |
| 20260504010453 | 82 | 243 | 0.0 | 0.0 | 0.00 | 0.00 | 0.00 | 99 | 1009.8 |
| 20260504010353 | 82 | 243 | 0.0 | 0.0 | 0.00 | 0.00 | 0.00 | 99 | 1009.8 |
| 20260504010253 | 81 | 243 | 0.0 | 0.0 | 0.00 | 0.00 | 0.00 | 99 | 1009.8 |
| 20260504010153 | 81 | 243 | 0.0 | 0.0 | 0.00 | 0.00 | 0.00 | 99 | 1009.8 |
| 20260504010053 | 81 | 243 | 0.0 | 0.0 | 0.00 | 0.00 | 0.00 | 99 | 1009.8 |
| 20260504005953 | 81 | 243 | 0.0 | 0.0 | 0.00 | 0.00 | 0.00 | 99 | 1009.8 |
| 20260504005855 | 81 | 243 | 0.0 | 0.0 | 0.00 | 0.00 | 0.00 | 99 | 1009.8 |
| 20260504005755 | 81 | 224 | 0.0 | 0.0 | 0.00 | 0.00 | 0.00 | 99 | 1009.8 |
| 20260504005653 | 81 | 233 | 0.0 | 0.0 | 0.00 | 0.00 | 0.00 | 99 | 1009.8 |
| 20260504005555 | 81 | 219 | 0.0 | 0.0 | 0.00 | 0.00 | 0.00 | 99 | 1009.8 |
| 20260504004817 | 80 | 203 | 0.0 | 0.0 | 0.00 | 0.00 | 0.00 | 99 | 1009.4 |
| 20260504004718 | 80 | 202 | 0.0 | 0.0 | 0.00 | 0.00 | 0.00 | 99 | 1009.4 |
| 20260504004617 | 80 | 202 | 0.0 | 0.0 | 0.00 | 0.00 | 0.00 | 99 | 1009.4 |
| 20260504004523 | 80 | 214 | 0.0 | 0.0 | 0.00 | 0.00 | 0.00 | 99 | 1009.4 |
| 20260504004417 | 80 | 214 | 0.0 | 0.0 | 0.00 | 0.00 | 0.00 | 99 | 1009.4 |
| 20260504004317 | 80 | 214 | 0.0 | 0.0 | 0.00 | 0.00 | 0.00 | 99 | 1009.4 |
| 20260504004217 | 80 | 213 | 0.0 | 0.0 | 0.00 | 0.00 | 0.00 | 99 | 1009.3 |
| 20260504004117 | 80 | 213 | 0.0 | 0.0 | 0.00 | 0.00 | 0.00 | 99 | 1009.3 |
| 20260504004017 | 80 | 269 | 0.0 | 0.0 | 0.00 | 0.00 | 0.00 | 99 | 1009.3 |
| 20260504003917 | 80 | 269 | 0.0 | 0.0 | 0.00 | 0.00 | 0.00 | 99 | 1009.3 |
| 20260504003817 | 80 | 269 | 0.0 | 0.0 | 0.00 | 0.00 | 0.00 | 99 | 1009.3 |
| 20260504003717 | 79 | 274 | 0.0 | 0.0 | 0.00 | 0.00 | 0.00 | 99 | 1009.3 |
| 20260504003617 | 79 | 276 | 0.0 | 0.0 | 0.00 | 0.00 | 0.00 | 99 | 1009.3 |
| 20260504003517 | 79 | 276 | 0.0 | 0.0 | 0.00 | 0.00 | 0.00 | 99 | 1009.3 |
| 20260504003417 | 79 | 276 | 0.0 | 0.0 | 0.00 | 0.00 | 0.00 | 99 | 1009.3 |
| 20260504003317 | 79 | 276 | 0.0 | 0.0 | 0.00 | 0.00 | 0.00 | 99 | 1009.2 |
| 20260504003217 | 79 | 276 | 0.0 | 0.0 | 0.00 | 0.00 | 0.00 | 99 | 1009.2 |
| 20260504003117 | 79 | 276 | 0.0 | 1.0 | 0.00 | 0.00 | 0.00 | 99 | 1009.2 |
| 20260504003033 | 79 | 276 | 0.0 | 0.0 | 0.00 | 0.00 | 0.00 | 99 | 1009.2 |
| 20260504002917 | 79 | 276 | 0.0 | 0.0 | 0.00 | 0.00 | 0.00 | 99 | 1009.2 |
| 20260504002817 | 79 | 276 | 0.0 | 0.0 | 0.00 | 0.00 | 0.00 | 99 | 1009.2 |
| 20260504002717 | 79 | 276 | 0.0 | 0.0 | 0.00 | 0.00 | 0.00 | 99 | 1009.2 |
| 20260504002617 | 79 | 276 | 0.0 | 0.0 | 0.00 | 0.00 | 0.00 | 99 | 1009.1 |
| 20260504002517 | 79 | 276 | 0.0 | 0.0 | 0.00 | 0.00 | 0.00 | 99 | 1009.1 |
| 20260504002417 | 78 | 276 | 0.0 | 0.0 | 0.00 | 0.00 | 0.00 | 99 | 1009.1 |
| 20260504002317 | 78 | 276 | 0.0 | 0.0 | 0.00 | 0.00 | 0.00 | 99 | 1009.1 |
| 20260504002217 | 78 | 276 | 0.0 | 0.0 | 0.00 | 0.00 | 0.00 | 99 | 1009.1 |
| 20260504002117 | 78 | 276 | 0.0 | 3.0 | 0.00 | 0.00 | 0.00 | 99 | 1009.1 |
| 20260504002017 | 78 | 276 | 0.0 | 0.0 | 0.00 | 0.00 | 0.00 | 99 | 1009.1 |
| 20260504001917 | 78 | 276 | 0.0 | 2.0 | 0.00 | 0.00 | 0.00 | 99 | 1009.0 |
| 20260504001817 | 78 | 279 | 2.0 | 2.0 | 0.00 | 0.00 | 0.00 | 99 | 1009.0 |
| 20260504001717 | 78 | 279 | 2.0 | 2.0 | 0.00 | 0.00 | 0.00 | 99 | 1009.0 |
| 20260504001617 | 78 | 279 | 2.0 | 1.0 | 0.00 | 0.00 | 0.00 | 99 | 1009.0 |
| 20260504001517 | 78 | 282 | 1.0 | 2.0 | 0.00 | 0.00 | 0.00 | 99 | 1009.0 |
| 20260504001417 | 78 | 282 | 2.0 | 3.0 | 0.00 | 0.00 | 0.00 | 99 | 1009.0 |
| 20260504001319 | 78 | 282 | 3.0 | 3.0 | 0.00 | 0.00 | 0.00 | 99 | 1009.0 |
| 20260504001217 | 78 | 292 | 3.0 | 3.0 | 0.00 | 0.00 | 0.00 | 99 | 1009.0 |
| 20260504001117 | 78 | 283 | 3.0 | 2.0 | 0.00 | 0.00 | 0.00 | 99 | 1009.0 |
| 20260504001019 | 78 | 269 | 2.0 | 3.0 | 0.00 | 0.00 | 0.00 | 99 | 1008.9 |
| 20260504000917 | 78 | 277 | 3.0 | 4.0 | 0.00 | 0.00 | 0.00 | 99 | 1008.9 |
| 20260504000819 | 78 | 280 | 4.0 | 4.0 | 0.00 | 0.00 | 0.00 | 99 | 1008.9 |
| 20260504000717 | 78 | 276 | 4.0 | 4.0 | 0.00 | 0.00 | 0.00 | 99 | 1008.9 |
| 20260504000617 | 78 | 283 | 4.0 | 4.0 | 0.00 | 0.00 | 0.00 | 99 | 1008.9 |
| 20260504000517 | 78 | 278 | 4.0 | 3.0 | 0.00 | 0.00 | 0.00 | 99 | 1008.9 |
| 20260504000417 | 78 | 278 | 3.0 | 3.0 | 0.00 | 0.00 | 0.00 | 99 | 1008.8 |
| 20260504000317 | 78 | 278 | 3.0 | 2.0 | 0.00 | 0.00 | 0.00 | 99 | 1008.8 |
| 20260504000219 | 78 | 279 | 2.0 | 2.0 | 0.00 | 0.00 | 0.00 | 99 | 1008.8 |
| 20260504000117 | 78 | 271 | 2.0 | 2.0 | 0.00 | 0.00 | 0.00 | 99 | 1008.8 |
| 20260504000021 | 78 | 281 | 3.0 | 3.0 | 0.00 | 0.00 | 0.00 | 99 | 1008.7 |
| 20260503235917 | 78 | 282 | 3.0 | 1.0 | 0.00 | 0.00 | 0.00 | 99 | 1008.7 |
| 20260503235817 | 77 | 286 | 1.0 | 2.0 | 0.00 | 0.00 | 0.00 | 99 | 1008.7 |
| 20260503235717 | 77 | 286 | 2.0 | 2.0 | 0.00 | 0.00 | 0.00 | 99 | 1008.7 |
| 20260503235617 | 77 | 286 | 2.0 | 2.0 | 0.00 | 0.00 | 0.00 | 99 | 1008.7 |
| 20260503235517 | 77 | 294 | 2.0 | 2.0 | 0.00 | 0.00 | 0.00 | 99 | 1008.7 |
| 20260503235417 | 77 | 294 | 2.0 | 2.0 | 0.00 | 0.00 | 0.00 | 99 | 1008.7 |
| 20260503235317 | 77 | 294 | 2.0 | 2.0 | 0.00 | 0.00 | 0.00 | 99 | 1008.6 |
| 20260503235217 | 77 | 293 | 2.0 | 2.0 | 0.00 | 0.00 | 0.00 | 99 | 1008.6 |
| 20260503235117 | 77 | 270 | 2.0 | 3.0 | 0.00 | 0.00 | 0.00 | 99 | 1008.6 |
| 20260503235017 | 77 | 270 | 2.0 | 2.0 | 0.00 | 0.00 | 0.00 | 99 | 1008.6 |
| 20260503234930 | 77 | 270 | 2.0 | 2.0 | 0.00 | 0.00 | 0.00 | 99 | 1008.6 |
| 20260503234817 | 77 | 266 | 2.0 | 3.0 | 0.00 | 0.00 | 0.00 | 99 | 1008.5 |
| 20260503234717 | 77 | 266 | 3.0 | 2.0 | 0.00 | 0.00 | 0.00 | 99 | 1008.5 |
| 20260503234617 | 77 | 266 | 2.0 | 3.0 | 0.00 | 0.00 | 0.00 | 99 | 1008.5 |
| 20260503234534 | 77 | 258 | 3.0 | 3.0 | 0.00 | 0.00 | 0.00 | 99 | 1008.5 |
| 20260503234417 | 77 | 258 | 3.0 | 3.0 | 0.00 | 0.00 | 0.00 | 99 | 1008.5 |
| 20260503234317 | 77 | 259 | 3.0 | 4.0 | 0.00 | 0.00 | 0.00 | 99 | 1008.5 |
| 20260503234217 | 77 | 256 | 4.0 | 3.0 | 0.00 | 0.00 | 0.00 | 99 | 1008.4 |
| 20260503234117 | 77 | 257 | 3.0 | 3.0 | 0.00 | 0.00 | 0.00 | 99 | 1008.4 |
| 20260503234017 | 77 | 255 | 3.0 | 4.0 | 0.00 | 0.00 | 0.00 | 99 | 1008.4 |
| 20260503233917 | 77 | 247 | 4.0 | 3.0 | 0.00 | 0.00 | 0.00 | 99 | 1008.4 |
| 20260503233817 | 77 | 257 | 3.0 | 3.0 | 0.00 | 0.00 | 0.00 | 99 | 1008.4 |
| 20260503233718 | 77 | 249 | 3.0 | 2.0 | 0.00 | 0.00 | 0.00 | 99 | 1008.4 |
| 20260503233617 | 77 | 249 | 2.0 | 2.0 | 0.00 | 0.00 | 0.00 | 99 | 1008.3 |
| 20260503233517 | 77 | 248 | 2.0 | 3.0 | 0.00 | 0.00 | 0.00 | 99 | 1008.3 |
| 20260503233417 | 77 | 257 | 3.0 | 3.0 | 0.00 | 0.00 | 0.00 | 99 | 1008.3 |
| 20260503233317 | 77 | 257 | 3.0 | 3.0 | 0.00 | 0.00 | 0.00 | 99 | 1008.3 |
| 20260503233217 | 77 | 268 | 3.0 | 3.0 | 0.00 | 0.00 | 0.00 | 99 | 1008.3 |
| 20260503233117 | 77 | 250 | 3.0 | 2.0 | 0.00 | 0.00 | 0.00 | 99 | 1008.3 |
| 20260503233024 | 77 | 258 | 3.0 | 3.0 | 0.00 | 0.00 | 0.00 | 99 | 1008.3 |
| 20260503232917 | 77 | 250 | 3.0 | 3.0 | 0.00 | 0.00 | 0.00 | 99 | 1008.2 |
| 20260503232817 | 77 | 257 | 3.0 | 3.0 | 0.00 | 0.00 | 0.00 | 99 | 1008.2 |
| 20260503232717 | 77 | 265 | 3.0 | 3.0 | 0.00 | 0.00 | 0.00 | 99 | 1008.2 |
| 20260503232617 | 77 | 265 | 3.0 | 4.0 | 0.00 | 0.00 | 0.00 | 99 | 1008.2 |
| 20260503232519 | 77 | 270 | 4.0 | 3.0 | 0.00 | 0.00 | 0.00 | 99 | 1008.2 |
| 20260503232417 | 77 | 275 | 3.0 | 4.0 | 0.00 | 0.00 | 0.00 | 99 | 1008.2 |
| 20260503232317 | 77 | 285 | 4.0 | 3.0 | 0.00 | 0.00 | 0.00 | 99 | 1008.2 |
| 20260503232217 | 77 | 285 | 3.0 | 3.0 | 0.00 | 0.00 | 0.00 | 99 | 1008.2 |
| 20260503232117 | 77 | 285 | 3.0 | 2.0 | 0.00 | 0.00 | 0.00 | 99 | 1008.2 |
| 20260503232017 | 77 | 261 | 2.0 | 2.0 | 0.00 | 0.00 | 0.00 | 99 | 1008.2 |
| 20260503231917 | 77 | 227 | 2.0 | 2.0 | 0.00 | 0.00 | 0.00 | 99 | 1008.1 |
| 20260503231817 | 77 | 227 | 2.0 | 1.0 | 0.00 | 0.00 | 0.00 | 99 | 1008.1 |
| 20260503231717 | 77 | 227 | 1.0 | 1.0 | 0.00 | 0.00 | 0.00 | 99 | 1008.1 |
| 20260503231617 | 77 | 215 | 1.0 | 1.0 | 0.00 | 0.00 | 0.00 | 99 | 1008.1 |
| 20260503231534 | 77 | 215 | 1.0 | 1.0 | 0.00 | 0.00 | 0.00 | 99 | 1008.1 |
| 20260503231417 | 77 | 215 | 1.0 | 2.0 | 0.00 | 0.00 | 0.00 | 99 | 1008.1 |
| 20260503231317 | 77 | 215 | 2.0 | 1.0 | 0.00 | 0.00 | 0.00 | 99 | 1008.1 |
| 20260503231217 | 77 | 215 | 1.0 | 2.0 | 0.00 | 0.00 | 0.00 | 99 | 1008.1 |
| 20260503231117 | 77 | 215 | 2.0 | 2.0 | 0.00 | 0.00 | 0.00 | 99 | 1008.1 |
| 20260503231017 | 77 | 215 | 2.0 | 2.0 | 0.00 | 0.00 | 0.00 | 99 | 1008.1 |
| 20260503230917 | 77 | 242 | 2.0 | 1.0 | 0.00 | 0.00 | 0.00 | 99 | 1008.1 |
| 20260503230817 | 77 | 292 | 1.0 | 1.0 | 0.00 | 0.00 | 0.00 | 99 | 1008.1 |
| 20260503230717 | 77 | 292 | 1.0 | 1.0 | 0.00 | 0.00 | 0.00 | 99 | 1008.1 |
| 20260503230617 | 77 | 292 | 1.0 | 2.0 | 0.00 | 0.00 | 0.00 | 99 | 1008.1 |
| 20260503230518 | 77 | 292 | 2.0 | 2.0 | 0.00 | 0.00 | 0.00 | 99 | 1008.1 |
| 20260503230417 | 77 | 292 | 2.0 | 1.0 | 0.00 | 0.00 | 0.00 | 99 | 1008.1 |
| 20260503230316 | 77 | 292 | 1.0 | 1.0 | 0.00 | 0.00 | 0.00 | 99 | 1008.1 |
| 20260503230217 | 77 | 292 | 1.0 | 1.0 | 0.00 | 0.00 | 0.00 | 99 | 1008.1 |
| 20260503230116 | 77 | 292 | 1.0 | 3.0 | 0.00 | 0.00 | 0.00 | 99 | 1008.1 |
| 20260503230018 | 77 | 292 | 1.0 | 1.0 | 0.00 | 0.00 | 0.00 | 99 | 1008.1 |
| 20260503225917 | 77 | 292 | 1.0 | 1.0 | 0.00 | 0.00 | 0.00 | 99 | 1008.1 |
| 20260503225816 | 77 | 292 | 1.0 | 2.0 | 0.00 | 0.00 | 0.00 | 99 | 1008.1 |
| 20260503225716 | 77 | 292 | 2.0 | 2.0 | 0.00 | 0.00 | 0.00 | 99 | 1008.1 |
| 20260503225616 | 77 | 292 | 2.0 | 2.0 | 0.00 | 0.00 | 0.00 | 99 | 1008.1 |
| 20260503225517 | 77 | 292 | 2.0 | 2.0 | 0.00 | 0.00 | 0.00 | 99 | 1008.1 |
| 20260503225416 | 77 | 292 | 2.0 | 2.0 | 0.00 | 0.00 | 0.00 | 99 | 1008.1 |
| 20260503225316 | 77 | 296 | 2.0 | 2.0 | 0.00 | 0.00 | 0.00 | 99 | 1008.1 |
| 20260503225216 | 77 | 300 | 2.0 | 3.0 | 0.00 | 0.00 | 0.00 | 99 | 1008.1 |
| 20260503225116 | 77 | 300 | 3.0 | 3.0 | 0.00 | 0.00 | 0.00 | 99 | 1008.1 |
| 20260503225016 | 77 | 301 | 3.0 | 3.0 | 0.00 | 0.00 | 0.00 | 99 | 1008.1 |
| 20260503224916 | 77 | 302 | 3.0 | 4.0 | 0.00 | 0.00 | 0.00 | 99 | 1008.1 |
| 20260503224816 | 77 | 302 | 4.0 | 2.0 | 0.00 | 0.00 | 0.00 | 99 | 1008.1 |
| 20260503224716 | 77 | 298 | 2.0 | 2.0 | 0.00 | 0.00 | 0.00 | 99 | 1008.1 |
| 20260503224616 | 77 | 277 | 2.0 | 2.0 | 0.00 | 0.00 | 0.00 | 99 | 1008.1 |
| 20260503224522 | 77 | 277 | 2.0 | 2.0 | 0.00 | 0.00 | 0.00 | 99 | 1008.1 |
| 20260503224416 | 77 | 277 | 2.0 | 2.0 | 0.00 | 0.00 | 0.00 | 99 | 1008.1 |
| 20260503224316 | 77 | 277 | 2.0 | 3.0 | 0.00 | 0.00 | 0.00 | 99 | 1008.1 |
| 20260503224216 | 77 | 277 | 3.0 | 3.0 | 0.00 | 0.00 | 0.00 | 99 | 1008.1 |
| 20260503224116 | 77 | 277 | 3.0 | 2.0 | 0.00 | 0.00 | 0.00 | 99 | 1008.1 |
| 20260503224016 | 77 | 277 | 3.0 | 3.0 | 0.00 | 0.00 | 0.00 | 99 | 1008.1 |
| 20260503223916 | 77 | 277 | 3.0 | 2.0 | 0.00 | 0.00 | 0.00 | 99 | 1008.1 |
| 20260503223818 | 77 | 296 | 2.0 | 2.0 | 0.00 | 0.00 | 0.00 | 99 | 1008.1 |
| 20260503223716 | 77 | 299 | 2.0 | 3.0 | 0.00 | 0.00 | 0.00 | 99 | 1008.1 |
| 20260503223616 | 77 | 299 | 3.0 | 3.0 | 0.00 | 0.00 | 0.00 | 99 | 1008.1 |
| 20260503223516 | 77 | 300 | 3.0 | 3.0 | 0.00 | 0.00 | 0.00 | 99 | 1008.1 |
| 20260503223416 | 77 | 301 | 3.0 | 2.0 | 0.00 | 0.00 | 0.00 | 99 | 1008.1 |
| 20260503223316 | 77 | 283 | 2.0 | 2.0 | 0.00 | 0.00 | 0.00 | 99 | 1008.1 |
| 20260503223216 | 77 | 276 | 2.0 | 2.0 | 0.00 | 0.00 | 0.00 | 99 | 1008.1 |
| 20260503223130 | 77 | 276 | 2.0 | 2.0 | 0.00 | 0.00 | 0.00 | 99 | 1008.1 |
| 20260503223016 | 77 | 272 | 2.0 | 2.0 | 0.00 | 0.00 | 0.00 | 99 | 1008.1 |
| 20260503222916 | 77 | 271 | 2.0 | 2.0 | 0.00 | 0.00 | 0.00 | 99 | 1008.1 |
| 20260503222816 | 77 | 271 | 2.0 | 2.0 | 0.00 | 0.00 | 0.00 | 99 | 1008.1 |
| 20260503222716 | 77 | 271 | 2.0 | 1.0 | 0.00 | 0.00 | 0.00 | 99 | 1008.1 |
| 20260503222616 | 77 | 271 | 1.0 | 1.0 | 0.00 | 0.00 | 0.00 | 99 | 1008.1 |
| 20260503222516 | 77 | 271 | 1.0 | 2.0 | 0.00 | 0.00 | 0.00 | 99 | 1008.1 |
| 20260503222416 | 77 | 271 | 2.0 | 2.0 | 0.00 | 0.00 | 0.00 | 99 | 1008.1 |
| 20260503222316 | 77 | 271 | 2.0 | 1.0 | 0.00 | 0.00 | 0.00 | 99 | 1008.1 |
| 20260503222216 | 77 | 271 | 1.0 | 1.0 | 0.00 | 0.00 | 0.00 | 99 | 1008.1 |
| 20260503222116 | 77 | 271 | 1.0 | 2.0 | 0.00 | 0.00 | 0.00 | 99 | 1008.1 |
| 20260503222016 | 77 | 271 | 2.0 | 2.0 | 0.00 | 0.00 | 0.00 | 99 | 1008.1 |
| 20260503221916 | 77 | 271 | 2.0 | 2.0 | 0.00 | 0.00 | 0.00 | 99 | 1008.1 |
| 20260503221816 | 77 | 271 | 2.0 | 2.0 | 0.00 | 0.00 | 0.00 | 99 | 1008.1 |
| 20260503221716 | 77 | 271 | 2.0 | 2.0 | 0.00 | 0.00 | 0.00 | 99 | 1008.1 |
| 20260503221616 | 77 | 271 | 2.0 | 2.0 | 0.00 | 0.00 | 0.00 | 99 | 1008.1 |
| 20260503221522 | 77 | 271 | 2.0 | 2.0 | 0.00 | 0.00 | 0.00 | 99 | 1008.1 |
| 20260503221416 | 77 | 289 | 2.0 | 2.0 | 0.00 | 0.00 | 0.00 | 99 | 1008.1 |
| 20260503221316 | 77 | 289 | 2.0 | 2.0 | 0.00 | 0.00 | 0.00 | 99 | 1008.1 |
| 20260503221216 | 77 | 290 | 2.0 | 2.0 | 0.00 | 0.00 | 0.00 | 99 | 1008.1 |
| 20260503221116 | 77 | 254 | 2.0 | 3.0 | 0.00 | 0.00 | 0.00 | 99 | 1008.1 |
| 20260503221016 | 77 | 242 | 2.0 | 2.0 | 0.00 | 0.00 | 0.00 | 99 | 1008.1 |
| 20260503220916 | 77 | 234 | 2.0 | 2.0 | 0.00 | 0.00 | 0.00 | 99 | 1008.1 |
| 20260503220816 | 77 | 234 | 2.0 | 2.0 | 0.00 | 0.00 | 0.00 | 99 | 1008.1 |
| 20260503220716 | 77 | 234 | 2.0 | 2.0 | 0.00 | 0.00 | 0.00 | 99 | 1008.1 |
| 20260503220620 | 77 | 234 | 2.0 | 2.0 | 0.00 | 0.00 | 0.00 | 99 | 1008.1 |
| 20260503220516 | 77 | 234 | 2.0 | 3.0 | 0.00 | 0.00 | 0.00 | 99 | 1008.1 |
| 20260503220416 | 77 | 246 | 3.0 | 2.0 | 0.00 | 0.00 | 0.00 | 99 | 1008.1 |
| 20260503220316 | 77 | 246 | 2.0 | 2.0 | 0.00 | 0.00 | 0.00 | 99 | 1008.1 |
| 20260503220220 | 77 | 246 | 2.0 | 2.0 | 0.00 | 0.00 | 0.00 | 99 | 1008.1 |
| 20260503220116 | 77 | 246 | 2.0 | 3.0 | 0.00 | 0.00 | 0.00 | 99 | 1008.0 |
| 20260503220022 | 77 | 247 | 2.0 | 2.0 | 0.00 | 0.00 | 0.00 | 99 | 1008.0 |
| 20260503215916 | 77 | 247 | 2.0 | 2.0 | 0.00 | 0.00 | 0.00 | 99 | 1008.0 |
| 20260503215816 | 77 | 247 | 2.0 | 3.0 | 0.00 | 0.00 | 0.00 | 99 | 1008.0 |
| 20260503215716 | 77 | 247 | 3.0 | 4.0 | 0.00 | 0.00 | 0.00 | 99 | 1008.0 |
| 20260503215616 | 77 | 251 | 4.0 | 3.0 | 0.00 | 0.00 | 0.00 | 99 | 1008.0 |
| 20260503215516 | 77 | 261 | 3.0 | 4.0 | 0.00 | 0.00 | 0.00 | 99 | 1008.0 |
| 20260503215418 | 77 | 265 | 4.0 | 4.0 | 0.00 | 0.00 | 0.00 | 99 | 1008.0 |
| 20260503215316 | 77 | 269 | 4.0 | 3.0 | 0.00 | 0.00 | 0.00 | 99 | 1008.0 |
| 20260503215216 | 77 | 272 | 3.0 | 3.0 | 0.00 | 0.00 | 0.00 | 99 | 1008.0 |
| 20260503215116 | 77 | 272 | 3.0 | 2.0 | 0.00 | 0.00 | 0.00 | 99 | 1008.0 |
| 20260503215016 | 77 | 272 | 3.0 | 3.0 | 0.00 | 0.00 | 0.00 | 99 | 1008.0 |
| 20260503214916 | 77 | 272 | 3.0 | 2.0 | 0.00 | 0.00 | 0.00 | 99 | 1008.0 |
| 20260503214816 | 77 | 272 | 2.0 | 3.0 | 0.00 | 0.00 | 0.00 | 99 | 1008.0 |
| 20260503214716 | 77 | 272 | 3.0 | 2.0 | 0.00 | 0.00 | 0.00 | 99 | 1008.0 |
| 20260503214616 | 77 | 272 | 2.0 | 2.0 | 0.00 | 0.00 | 0.00 | 99 | 1008.0 |
| 20260503214605 | 77 | 272 | 2.0 | 2.0 | 0.00 | 0.00 | 0.00 | 99 | 1008.0 |
| 20260503214416 | 77 | 272 | 2.0 | 2.0 | 0.00 | 0.00 | 0.00 | 99 | 1008.0 |
| 20260503214316 | 77 | 272 | 2.0 | 2.0 | 0.00 | 0.00 | 0.00 | 99 | 1008.0 |
| 20260503214216 | 77 | 272 | 2.0 | 2.0 | 0.00 | 0.00 | 0.00 | 99 | 1008.0 |
| 20260503214116 | 77 | 272 | 2.0 | 2.0 | 0.00 | 0.00 | 0.00 | 99 | 1007.9 |
| 20260503214016 | 77 | 272 | 1.0 | 1.0 | 0.00 | 0.00 | 0.00 | 99 | 1007.9 |
| 20260503213916 | 77 | 272 | 1.0 | 1.0 | 0.00 | 0.00 | 0.00 | 99 | 1007.9 |
| 20260503213816 | 77 | 272 | 1.0 | 2.0 | 0.00 | 0.00 | 0.00 | 99 | 1007.9 |
| 20260503213716 | 77 | 272 | 2.0 | 2.0 | 0.00 | 0.00 | 0.00 | 99 | 1007.9 |
| 20260503213616 | 77 | 272 | 2.0 | 2.0 | 0.00 | 0.00 | 0.00 | 99 | 1007.9 |
| 20260503213516 | 77 | 272 | 2.0 | 2.0 | 0.00 | 0.00 | 0.00 | 99 | 1007.9 |
| 20260503213416 | 77 | 272 | 2.0 | 3.0 | 0.00 | 0.00 | 0.00 | 99 | 1007.9 |
| 20260503213316 | 77 | 269 | 3.0 | 3.0 | 0.00 | 0.00 | 0.00 | 99 | 1007.9 |
| 20260503213216 | 77 | 269 | 3.0 | 3.0 | 0.00 | 0.00 | 0.00 | 99 | 1007.9 |
| 20260503213118 | 77 | 269 | 3.0 | 3.0 | 0.00 | 0.00 | 0.00 | 99 | 1007.9 |
| 20260503212916 | 77 | 269 | 3.0 | 2.0 | 0.00 | 0.00 | 0.00 | 99 | 1007.9 |
| 20260503212816 | 78 | 269 | 2.0 | 2.0 | 0.00 | 0.00 | 0.00 | 99 | 1007.9 |
| 20260503212718 | 78 | 269 | 2.0 | 2.0 | 0.00 | 0.00 | 0.00 | 99 | 1007.9 |
| 20260503212616 | 78 | 269 | 2.0 | 1.0 | 0.00 | 0.00 | 0.00 | 99 | 1007.9 |
| 20260503212516 | 78 | 269 | 1.0 | 1.0 | 0.00 | 0.00 | 0.00 | 99 | 1007.9 |
| 20260503212416 | 78 | 269 | 1.0 | 1.0 | 0.00 | 0.00 | 0.00 | 99 | 1007.9 |
| 20260503212316 | 78 | 269 | 1.0 | 1.0 | 0.00 | 0.00 | 0.00 | 99 | 1007.9 |
| 20260503212216 | 78 | 269 | 1.0 | 1.0 | 0.00 | 0.00 | 0.00 | 99 | 1007.9 |
| 20260503212116 | 78 | 269 | 1.0 | 0.0 | 0.00 | 0.00 | 0.00 | 99 | 1007.9 |
| 20260503212016 | 78 | 269 | 1.0 | 1.0 | 0.00 | 0.00 | 0.00 | 99 | 1007.9 |
| 20260503211916 | 78 | 269 | 1.0 | 1.0 | 0.00 | 0.00 | 0.00 | 99 | 1007.9 |
| 20260503211816 | 78 | 269 | 1.0 | 1.0 | 0.00 | 0.00 | 0.00 | 99 | 1007.9 |
| 20260503211716 | 78 | 269 | 1.0 | 2.0 | 0.00 | 0.00 | 0.00 | 99 | 1007.9 |
| 20260503211616 | 78 | 266 | 2.0 | 2.0 | 0.00 | 0.00 | 0.00 | 99 | 1007.9 |
| 20260503211518 | 78 | 266 | 2.0 | 2.0 | 0.00 | 0.00 | 0.00 | 99 | 1007.9 |
| 20260503211416 | 78 | 266 | 2.0 | 2.0 | 0.00 | 0.00 | 0.00 | 99 | 1007.9 |
| 20260503211316 | 78 | 263 | 2.0 | 2.0 | 0.00 | 0.00 | 0.00 | 99 | 1007.9 |
| 20260503211216 | 78 | 262 | 2.0 | 1.0 | 0.00 | 0.00 | 0.00 | 99 | 1007.9 |
| 20260503211117 | 78 | 262 | 1.0 | 0.0 | 0.00 | 0.00 | 0.00 | 99 | 1007.9 |
| 20260503211016 | 78 | 262 | 1.0 | 0.0 | 0.00 | 0.00 | 0.00 | 99 | 1007.9 |
| 20260503210915 | 78 | 262 | 0.0 | 0.0 | 0.00 | 0.00 | 0.00 | 99 | 1007.9 |
| 20260503210815 | 78 | 262 | 0.0 | 0.0 | 0.00 | 0.00 | 0.00 | 99 | 1007.8 |
| 20260503210717 | 78 | 262 | 0.0 | 0.0 | 0.00 | 0.00 | 0.00 | 99 | 1007.8 |
| 20260503210615 | 78 | 262 | 0.0 | 0.0 | 0.00 | 0.00 | 0.00 | 99 | 1007.8 |
| 20260503210515 | 78 | 262 | 0.0 | 0.0 | 0.00 | 0.00 | 0.00 | 99 | 1007.8 |
| 20260503210416 | 78 | 263 | 0.0 | 0.0 | 0.00 | 0.00 | 0.00 | 99 | 1007.8 |
| 20260503210315 | 78 | 266 | 0.0 | 0.0 | 0.00 | 0.00 | 0.00 | 99 | 1007.8 |
| 20260503210215 | 78 | 266 | 0.0 | 0.0 | 0.00 | 0.00 | 0.00 | 99 | 1007.8 |
| 20260503210115 | 78 | 266 | 0.0 | 0.0 | 0.00 | 0.00 | 0.00 | 99 | 1007.8 |
| 20260503210015 | 78 | 266 | 0.0 | 0.0 | 0.00 | 0.00 | 0.00 | 99 | 1007.8 |
| 20260503205915 | 78 | 266 | 0.0 | 0.0 | 0.00 | 0.00 | 0.00 | 99 | 1007.8 |
| 20260503205815 | 78 | 266 | 0.0 | 0.0 | 0.00 | 0.00 | 0.00 | 99 | 1007.7 |
| 20260503205715 | 78 | 266 | 0.0 | 0.0 | 0.00 | 0.00 | 0.00 | 99 | 1007.7 |
| 20260503205615 | 78 | 266 | 0.0 | 0.0 | 0.00 | 0.00 | 0.00 | 99 | 1007.7 |
| 20260503205515 | 78 | 266 | 0.0 | 0.0 | 0.00 | 0.00 | 0.00 | 99 | 1007.7 |
| 20260503205415 | 78 | 266 | 0.0 | 0.0 | 0.00 | 0.00 | 0.00 | 99 | 1007.7 |
| 20260503205315 | 78 | 266 | 0.0 | 0.0 | 0.00 | 0.00 | 0.00 | 99 | 1007.7 |
| 20260503205215 | 78 | 266 | 0.0 | 0.0 | 0.00 | 0.00 | 0.00 | 99 | 1007.7 |
| 20260503205115 | 78 | 266 | 0.0 | 1.0 | 0.00 | 0.00 | 0.00 | 99 | 1007.7 |
| 20260503205015 | 78 | 266 | 0.0 | 0.0 | 0.00 | 0.00 | 0.00 | 99 | 1007.7 |
| 20260503204915 | 78 | 266 | 0.0 | 0.0 | 0.00 | 0.00 | 0.00 | 99 | 1007.7 |
| 20260503204815 | 78 | 266 | 0.0 | 0.0 | 0.00 | 0.00 | 0.00 | 99 | 1007.7 |
| 20260503204715 | 78 | 266 | 0.0 | 0.0 | 0.00 | 0.00 | 0.00 | 99 | 1007.7 |
| 20260503204615 | 78 | 266 | 0.0 | 1.0 | 0.00 | 0.00 | 0.00 | 99 | 1007.7 |
| 20260503204521 | 78 | 266 | 1.0 | 1.0 | 0.00 | 0.00 | 0.00 | 99 | 1007.7 |
| 20260503204415 | 78 | 266 | 1.0 | 1.0 | 0.00 | 0.00 | 0.00 | 99 | 1007.7 |
| 20260503204315 | 78 | 266 | 1.0 | 1.0 | 0.00 | 0.00 | 0.00 | 99 | 1007.7 |
| 20260503204215 | 78 | 266 | 1.0 | 1.0 | 0.00 | 0.00 | 0.00 | 99 | 1007.7 |
| 20260503204115 | 78 | 266 | 1.0 | 0.0 | 0.00 | 0.00 | 0.00 | 99 | 1007.7 |
| 20260503204015 | 78 | 266 | 2.0 | 2.0 | 0.00 | 0.00 | 0.00 | 99 | 1007.7 |
| 20260503203915 | 78 | 266 | 2.0 | 0.0 | 0.00 | 0.00 | 0.00 | 99 | 1007.7 |
| 20260503203815 | 78 | 266 | 0.0 | 0.0 | 0.00 | 0.00 | 0.00 | 99 | 1007.7 |
| 20260503203715 | 78 | 266 | 0.0 | 0.0 | 0.00 | 0.00 | 0.00 | 99 | 1007.7 |
| 20260503203615 | 78 | 266 | 0.0 | 0.0 | 0.00 | 0.00 | 0.00 | 99 | 1007.7 |
| 20260503203515 | 78 | 266 | 0.0 | 0.0 | 0.00 | 0.00 | 0.00 | 99 | 1007.7 |
| 20260503203415 | 78 | 266 | 0.0 | 0.0 | 0.00 | 0.00 | 0.00 | 99 | 1007.7 |
| 20260503203315 | 78 | 266 | 0.0 | 0.0 | 0.00 | 0.00 | 0.00 | 99 | 1007.7 |
| 20260503203215 | 78 | 266 | 0.0 | 0.0 | 0.00 | 0.00 | 0.00 | 99 | 1007.7 |
| 20260503203115 | 78 | 266 | 0.0 | 0.0 | 0.00 | 0.00 | 0.00 | 99 | 1007.7 |
| 20260503203034 | 78 | 266 | 0.0 | 0.0 | 0.00 | 0.00 | 0.00 | 99 | 1007.7 |
| 20260503202915 | 78 | 266 | 0.0 | 0.0 | 0.00 | 0.00 | 0.00 | 99 | 1007.7 |
| 20260503202815 | 78 | 266 | 0.0 | 0.0 | 0.00 | 0.00 | 0.00 | 99 | 1007.7 |
| 20260503202715 | 78 | 266 | 0.0 | 0.0 | 0.00 | 0.00 | 0.00 | 99 | 1007.7 |
| 20260503202615 | 78 | 266 | 0.0 | 0.0 | 0.00 | 0.00 | 0.00 | 99 | 1007.7 |
| 20260503202515 | 78 | 266 | 0.0 | 0.0 | 0.00 | 0.00 | 0.00 | 99 | 1007.7 |
| 20260503202415 | 78 | 266 | 0.0 | 0.0 | 0.00 | 0.00 | 0.00 | 99 | 1007.7 |
| 20260503202315 | 78 | 266 | 0.0 | 0.0 | 0.00 | 0.00 | 0.00 | 99 | 1007.7 |
| 20260503202215 | 78 | 266 | 0.0 | 0.0 | 0.00 | 0.00 | 0.00 | 99 | 1007.7 |
| 20260503202115 | 78 | 266 | 0.0 | 0.0 | 0.00 | 0.00 | 0.00 | 99 | 1007.7 |
| 20260503202015 | 78 | 266 | 0.0 | 0.0 | 0.00 | 0.00 | 0.00 | 99 | 1007.7 |
| 20260503201915 | 78 | 266 | 0.0 | 0.0 | 0.00 | 0.00 | 0.00 | 99 | 1007.8 |
| 20260503201815 | 78 | 266 | 0.0 | 0.0 | 0.00 | 0.00 | 0.00 | 99 | 1007.8 |
| 20260503201715 | 78 | 266 | 0.0 | 0.0 | 0.00 | 0.00 | 0.00 | 99 | 1007.8 |
| 20260503201615 | 78 | 266 | 0.0 | 0.0 | 0.00 | 0.00 | 0.00 | 99 | 1007.8 |
| 20260503201517 | 78 | 266 | 0.0 | 0.0 | 0.00 | 0.00 | 0.00 | 99 | 1007.7 |
| 20260503201415 | 78 | 266 | 0.0 | 0.0 | 0.00 | 0.00 | 0.00 | 99 | 1007.7 |
| 20260503201315 | 78 | 266 | 0.0 | 0.0 | 0.00 | 0.00 | 0.00 | 99 | 1007.7 |
| 20260503201215 | 78 | 266 | 0.0 | 0.0 | 0.00 | 0.00 | 0.00 | 99 | 1007.7 |
| 20260503201115 | 78 | 266 | 0.0 | 0.0 | 0.00 | 0.00 | 0.00 | 99 | 1007.7 |
| 20260503201015 | 78 | 266 | 0.0 | 0.0 | 0.00 | 0.00 | 0.00 | 99 | 1007.7 |
| 20260503200915 | 78 | 266 | 0.0 | 0.0 | 0.00 | 0.00 | 0.00 | 99 | 1007.7 |
| 20260503200815 | 78 | 266 | 0.0 | 0.0 | 0.00 | 0.00 | 0.00 | 99 | 1007.7 |
| 20260503200715 | 78 | 266 | 0.0 | 0.0 | 0.00 | 0.00 | 0.00 | 99 | 1007.7 |
| 20260503200615 | 78 | 266 | 0.0 | 0.0 | 0.00 | 0.00 | 0.00 | 99 | 1007.7 |
| 20260503200515 | 78 | 266 | 0.0 | 0.0 | 0.00 | 0.00 | 0.00 | 99 | 1007.7 |
| 20260503200415 | 78 | 266 | 0.0 | 0.0 | 0.00 | 0.00 | 0.00 | 99 | 1007.7 |
| 20260503200315 | 78 | 266 | 0.0 | 0.0 | 0.00 | 0.00 | 0.00 | 99 | 1007.7 |
| 20260503200215 | 78 | 266 | 0.0 | 0.0 | 0.00 | 0.00 | 0.00 | 99 | 1007.7 |
| 20260503200115 | 78 | 266 | 0.0 | 0.0 | 0.00 | 0.00 | 0.00 | 99 | 1007.7 |
| 20260503200021 | 78 | 266 | 0.0 | 0.0 | 0.00 | 0.00 | 0.00 | 99 | 1007.7 |
| 20260503195915 | 78 | 266 | 0.0 | 0.0 | 0.00 | 0.00 | 0.00 | 99 | 1007.7 |
| 20260503195815 | 78 | 266 | 0.0 | 0.0 | 0.00 | 0.00 | 0.00 | 99 | 1007.8 |
| 20260503195715 | 78 | 266 | 0.0 | 0.0 | 0.00 | 0.00 | 0.00 | 99 | 1007.8 |
| 20260503195615 | 78 | 266 | 0.0 | 0.0 | 0.00 | 0.00 | 0.00 | 99 | 1007.8 |
| 20260503195515 | 78 | 266 | 0.0 | 0.0 | 0.00 | 0.00 | 0.00 | 99 | 1007.8 |
| 20260503195415 | 78 | 266 | 0.0 | 0.0 | 0.00 | 0.00 | 0.00 | 99 | 1007.8 |
| 20260503195315 | 78 | 266 | 0.0 | 0.0 | 0.00 | 0.00 | 0.00 | 99 | 1007.8 |
| 20260503195215 | 78 | 266 | 0.0 | 0.0 | 0.00 | 0.00 | 0.00 | 99 | 1007.8 |
| 20260503195115 | 78 | 266 | 0.0 | 0.0 | 0.00 | 0.00 | 0.00 | 99 | 1007.8 |
| 20260503195015 | 78 | 266 | 0.0 | 0.0 | 0.00 | 0.00 | 0.00 | 99 | 1007.8 |
| 20260503194915 | 78 | 266 | 0.0 | 0.0 | 0.00 | 0.00 | 0.00 | 99 | 1007.8 |
| 20260503194815 | 78 | 266 | 0.0 | 0.0 | 0.00 | 0.00 | 0.00 | 99 | 1007.8 |
| 20260503194715 | 78 | 266 | 0.0 | 0.0 | 0.00 | 0.00 | 0.00 | 99 | 1007.8 |
| 20260503194615 | 78 | 266 | 0.0 | 0.0 | 0.00 | 0.00 | 0.00 | 99 | 1007.8 |
| 20260503194516 | 78 | 266 | 0.0 | 0.0 | 0.00 | 0.00 | 0.00 | 99 | 1007.8 |
| 20260503194415 | 78 | 266 | 0.0 | 0.0 | 0.00 | 0.00 | 0.00 | 99 | 1007.8 |
| 20260503194315 | 78 | 266 | 0.0 | 0.0 | 0.00 | 0.00 | 0.00 | 99 | 1007.8 |
| 20260503194215 | 78 | 266 | 0.0 | 0.0 | 0.00 | 0.00 | 0.00 | 99 | 1007.9 |
| 20260503194115 | 78 | 266 | 0.0 | 0.0 | 0.00 | 0.00 | 0.00 | 99 | 1007.9 |
| 20260503194015 | 78 | 266 | 0.0 | 0.0 | 0.00 | 0.00 | 0.00 | 99 | 1007.9 |
| 20260503193915 | 78 | 266 | 0.0 | 0.0 | 0.00 | 0.00 | 0.00 | 99 | 1007.9 |
| 20260503193815 | 78 | 266 | 0.0 | 0.0 | 0.00 | 0.00 | 0.00 | 99 | 1007.9 |
| 20260503193715 | 78 | 266 | 0.0 | 0.0 | 0.00 | 0.00 | 0.00 | 99 | 1007.9 |
| 20260503193615 | 78 | 266 | 0.0 | 0.0 | 0.00 | 0.00 | 0.00 | 99 | 1007.9 |
| 20260503193515 | 78 | 266 | 0.0 | 0.0 | 0.00 | 0.00 | 0.00 | 99 | 1007.9 |
| 20260503193415 | 78 | 266 | 0.0 | 0.0 | 0.00 | 0.00 | 0.00 | 99 | 1007.9 |
| 20260503193315 | 78 | 266 | 0.0 | 0.0 | 0.00 | 0.00 | 0.00 | 99 | 1007.9 |
| 20260503193215 | 78 | 266 | 0.0 | 0.0 | 0.00 | 0.00 | 0.00 | 99 | 1007.9 |
| 20260503193115 | 78 | 266 | 0.0 | 0.0 | 0.00 | 0.00 | 0.00 | 99 | 1007.9 |
| 20260503193017 | 78 | 266 | 0.0 | 0.0 | 0.00 | 0.00 | 0.00 | 99 | 1007.9 |
| 20260503192915 | 78 | 266 | 0.0 | 0.0 | 0.00 | 0.00 | 0.00 | 99 | 1007.9 |
| 20260503192815 | 78 | 266 | 0.0 | 0.0 | 0.00 | 0.00 | 0.00 | 99 | 1007.9 |
| 20260503192715 | 78 | 266 | 0.0 | 0.0 | 0.00 | 0.00 | 0.00 | 99 | 1007.9 |
| 20260503192615 | 78 | 266 | 0.0 | 0.0 | 0.00 | 0.00 | 0.00 | 99 | 1007.9 |
| 20260503192515 | 78 | 266 | 0.0 | 0.0 | 0.00 | 0.00 | 0.00 | 99 | 1007.9 |
| 20260503192415 | 78 | 266 | 0.0 | 0.0 | 0.00 | 0.00 | 0.00 | 99 | 1007.9 |
| 20260503192315 | 78 | 266 | 0.0 | 0.0 | 0.00 | 0.00 | 0.00 | 99 | 1008.0 |
| 20260503192215 | 78 | 266 | 0.0 | 0.0 | 0.00 | 0.00 | 0.00 | 99 | 1008.0 |
| 20260503192115 | 78 | 266 | 0.0 | 0.0 | 0.00 | 0.00 | 0.00 | 99 | 1008.0 |
| 20260503192015 | 78 | 266 | 0.0 | 0.0 | 0.00 | 0.00 | 0.00 | 99 | 1008.0 |
| 20260503191915 | 78 | 266 | 0.0 | 0.0 | 0.00 | 0.00 | 0.00 | 99 | 1008.0 |
| 20260503191815 | 78 | 266 | 0.0 | 0.0 | 0.00 | 0.00 | 0.00 | 99 | 1008.0 |
| 20260503191714 | 78 | 266 | 0.0 | 0.0 | 0.00 | 0.00 | 0.00 | 99 | 1008.0 |
| 20260503191615 | 78 | 266 | 0.0 | 0.0 | 0.00 | 0.00 | 0.00 | 99 | 1008.0 |
| 20260503191546 | 78 | 266 | 0.0 | 0.0 | 0.00 | 0.00 | 0.00 | 99 | 1008.0 |
| 20260503191415 | 78 | 266 | 0.0 | 0.0 | 0.00 | 0.00 | 0.00 | 99 | 1008.0 |
| 20260503191314 | 78 | 266 | 0.0 | 0.0 | 0.00 | 0.00 | 0.00 | 99 | 1008.0 |
| 20260503191216 | 78 | 266 | 0.0 | 0.0 | 0.00 | 0.00 | 0.00 | 99 | 1008.0 |
| 20260503191115 | 78 | 266 | 0.0 | 2.0 | 0.00 | 0.00 | 0.00 | 99 | 1008.0 |
| 20260503191014 | 78 | 266 | 0.0 | 0.0 | 0.00 | 0.00 | 0.00 | 99 | 1008.1 |
| 20260503190915 | 78 | 266 | 0.0 | 0.0 | 0.00 | 0.00 | 0.00 | 99 | 1008.1 |
| 20260503190814 | 78 | 266 | 0.0 | 0.0 | 0.00 | 0.00 | 0.00 | 99 | 1008.1 |
| 20260503190714 | 79 | 266 | 0.0 | 0.0 | 0.00 | 0.00 | 0.00 | 99 | 1008.1 |
| 20260503190614 | 79 | 266 | 0.0 | 0.0 | 0.00 | 0.00 | 0.00 | 99 | 1008.1 |
| 20260503190514 | 78 | 266 | 0.0 | 1.0 | 0.00 | 0.00 | 0.00 | 99 | 1008.1 |
| 20260503190414 | 78 | 266 | 1.0 | 1.0 | 0.00 | 0.00 | 0.00 | 99 | 1008.1 |
| 20260503190314 | 78 | 266 | 1.0 | 1.0 | 0.00 | 0.00 | 0.00 | 99 | 1008.1 |
| 20260503190215 | 79 | 266 | 1.0 | 1.0 | 0.00 | 0.00 | 0.00 | 99 | 1008.1 |
| 20260503190115 | 79 | 266 | 1.0 | 2.0 | 0.00 | 0.00 | 0.00 | 99 | 1008.1 |
| 20260503190015 | 79 | 266 | 2.0 | 2.0 | 0.00 | 0.00 | 0.00 | 99 | 1008.1 |
| 20260503185920 | 79 | 266 | 2.0 | 1.0 | 0.00 | 0.00 | 0.00 | 99 | 1008.1 |
| 20260503185814 | 79 | 266 | 1.0 | 2.0 | 0.00 | 0.00 | 0.00 | 99 | 1008.1 |
| 20260503185714 | 79 | 266 | 2.0 | 2.0 | 0.00 | 0.00 | 0.00 | 99 | 1008.1 |
| 20260503185614 | 79 | 266 | 2.0 | 1.0 | 0.00 | 0.00 | 0.00 | 99 | 1008.1 |
| 20260503185514 | 79 | 266 | 1.0 | 2.0 | 0.00 | 0.00 | 0.00 | 99 | 1008.1 |
| 20260503185414 | 79 | 266 | 2.0 | 1.0 | 0.00 | 0.00 | 0.00 | 99 | 1008.1 |
| 20260503185314 | 79 | 266 | 1.0 | 1.0 | 0.00 | 0.00 | 0.00 | 99 | 1008.2 |
| 20260503185214 | 79 | 266 | 1.0 | 2.0 | 0.00 | 0.00 | 0.00 | 99 | 1008.2 |
| 20260503185115 | 79 | 266 | 2.0 | 2.0 | 0.00 | 0.00 | 0.00 | 99 | 1008.2 |
| 20260503185014 | 79 | 266 | 2.0 | 2.0 | 0.00 | 0.00 | 0.00 | 99 | 1008.2 |
| 20260503184916 | 79 | 266 | 2.0 | 2.0 | 0.00 | 0.00 | 0.00 | 99 | 1008.2 |
| 20260503184814 | 79 | 266 | 2.0 | 2.0 | 0.00 | 0.00 | 0.00 | 99 | 1008.2 |
| 20260503184714 | 79 | 266 | 2.0 | 2.0 | 0.00 | 0.00 | 0.00 | 99 | 1008.2 |
| 20260503184614 | 79 | 266 | 2.0 | 2.0 | 0.00 | 0.00 | 0.00 | 99 | 1008.2 |
| 20260503184516 | 79 | 266 | 2.0 | 2.0 | 0.00 | 0.00 | 0.00 | 99 | 1008.2 |
| 20260503184414 | 79 | 266 | 2.0 | 2.0 | 0.00 | 0.00 | 0.00 | 99 | 1008.3 |
| 20260503184314 | 79 | 263 | 2.0 | 2.0 | 0.00 | 0.00 | 0.00 | 99 | 1008.3 |
| 20260503184214 | 79 | 263 | 2.0 | 2.0 | 0.00 | 0.00 | 0.00 | 99 | 1008.3 |
| 20260503184114 | 79 | 263 | 2.0 | 0.0 | 0.00 | 0.00 | 0.00 | 99 | 1008.3 |
| 20260503184014 | 79 | 263 | 2.0 | 2.0 | 0.00 | 0.00 | 0.00 | 99 | 1008.3 |
| 20260503183916 | 79 | 263 | 2.0 | 2.0 | 0.00 | 0.00 | 0.00 | 99 | 1008.3 |
| 20260503183814 | 79 | 263 | 2.0 | 2.0 | 0.00 | 0.00 | 0.00 | 99 | 1008.3 |
| 20260503183714 | 79 | 263 | 2.0 | 2.0 | 0.00 | 0.00 | 0.00 | 99 | 1008.3 |
| 20260503183614 | 79 | 263 | 2.0 | 2.0 | 0.00 | 0.00 | 0.00 | 99 | 1008.3 |
| 20260503183514 | 79 | 263 | 2.0 | 1.0 | 0.00 | 0.00 | 0.00 | 99 | 1008.3 |
| 20260503183414 | 79 | 263 | 1.0 | 1.0 | 0.00 | 0.00 | 0.00 | 99 | 1008.4 |
| 20260503183314 | 79 | 263 | 1.0 | 1.0 | 0.00 | 0.00 | 0.00 | 99 | 1008.4 |
| 20260503183214 | 79 | 263 | 1.0 | 1.0 | 0.00 | 0.00 | 0.00 | 99 | 1008.4 |
| 20260503183114 | 79 | 263 | 1.0 | 1.0 | 0.00 | 0.00 | 0.00 | 99 | 1008.4 |
| 20260503183028 | 79 | 263 | 0.0 | 0.0 | 0.00 | 0.00 | 0.00 | 99 | 1008.4 |
| 20260503182914 | 79 | 263 | 0.0 | 0.0 | 0.00 | 0.00 | 0.00 | 99 | 1008.4 |
| 20260503182814 | 79 | 263 | 0.0 | 0.0 | 0.00 | 0.00 | 0.00 | 99 | 1008.4 |
| 20260503182714 | 79 | 263 | 0.0 | 0.0 | 0.00 | 0.00 | 0.00 | 99 | 1008.5 |
| 20260503182614 | 79 | 263 | 0.0 | 1.0 | 0.00 | 0.00 | 0.00 | 99 | 1008.5 |
| 20260503182514 | 79 | 263 | 1.0 | 1.0 | 0.00 | 0.00 | 0.00 | 99 | 1008.5 |
| 20260503182414 | 79 | 263 | 1.0 | 0.0 | 0.00 | 0.00 | 0.00 | 99 | 1008.5 |
| 20260503182315 | 79 | 263 | 2.0 | 0.0 | 0.00 | 0.00 | 0.00 | 99 | 1008.5 |
| 20260503182214 | 79 | 263 | 0.0 | 0.0 | 0.00 | 0.00 | 0.00 | 99 | 1008.5 |
| 20260503181417 | 79 | 261 | 1.0 | 2.0 | 0.00 | 0.00 | 0.00 | 99 | 1008.5 |
| 20260503181317 | 79 | 259 | 2.0 | 2.0 | 0.00 | 0.00 | 0.00 | 99 | 1008.5 |
| 20260503181217 | 79 | 259 | 2.0 | 2.0 | 0.00 | 0.00 | 0.00 | 99 | 1008.5 |
| 20260503181117 | 79 | 259 | 2.0 | 3.0 | 0.00 | 0.00 | 0.00 | 99 | 1008.5 |
| 20260503181017 | 79 | 259 | 3.0 | 3.0 | 0.00 | 0.00 | 0.00 | 99 | 1008.5 |
| 20260503180917 | 79 | 254 | 3.0 | 3.0 | 0.00 | 0.00 | 0.00 | 99 | 1008.5 |
| 20260503180817 | 79 | 254 | 2.0 | 2.0 | 0.00 | 0.00 | 0.00 | 99 | 1008.6 |
| 20260503180717 | 79 | 254 | 2.0 | 3.0 | 0.00 | 0.00 | 0.00 | 99 | 1008.6 |
| 20260503180624 | 79 | 252 | 3.0 | 2.0 | 0.00 | 0.00 | 0.00 | 99 | 1008.6 |
| 20260503180530 | 79 | 252 | 2.0 | 3.0 | 0.00 | 0.00 | 0.00 | 99 | 1008.6 |
| 20260503180417 | 79 | 257 | 3.0 | 3.0 | 0.00 | 0.00 | 0.00 | 99 | 1008.6 |
| 20260503180317 | 79 | 258 | 3.0 | 3.0 | 0.00 | 0.00 | 0.00 | 99 | 1008.6 |
| 20260503180217 | 79 | 247 | 3.0 | 3.0 | 0.00 | 0.00 | 0.00 | 99 | 1008.6 |
| 20260503180125 | 79 | 259 | 4.0 | 3.0 | 0.00 | 0.00 | 0.00 | 99 | 1008.6 |
| 20260503175917 | 79 | 263 | 3.0 | 2.0 | 0.00 | 0.00 | 0.00 | 99 | 1008.7 |
| 20260503175817 | 79 | 263 | 4.0 | 4.0 | 0.00 | 0.00 | 0.00 | 99 | 1008.7 |
| 20260503175717 | 79 | 263 | 4.0 | 3.0 | 0.00 | 0.00 | 0.00 | 99 | 1008.7 |
| 20260503175617 | 79 | 266 | 3.0 | 3.0 | 0.00 | 0.00 | 0.00 | 99 | 1008.7 |
| 20260503175517 | 79 | 267 | 3.0 | 3.0 | 0.00 | 0.00 | 0.00 | 99 | 1008.7 |
| 20260503175417 | 79 | 269 | 3.0 | 2.0 | 0.00 | 0.00 | 0.00 | 99 | 1008.7 |
| 20260503175317 | 79 | 285 | 2.0 | 2.0 | 0.00 | 0.00 | 0.00 | 99 | 1008.7 |
| 20260503175223 | 79 | 285 | 2.0 | 2.0 | 0.00 | 0.00 | 0.00 | 99 | 1008.7 |
| 20260503175117 | 79 | 285 | 2.0 | 2.0 | 0.00 | 0.00 | 0.00 | 99 | 1008.6 |
| 20260503175017 | 79 | 282 | 2.0 | 3.0 | 0.00 | 0.00 | 0.00 | 99 | 1008.6 |
| 20260503174919 | 79 | 282 | 3.0 | 3.0 | 0.00 | 0.00 | 0.00 | 99 | 1008.6 |
| 20260503174817 | 79 | 270 | 3.0 | 3.0 | 0.00 | 0.00 | 0.00 | 99 | 1008.6 |
| 20260503174717 | 79 | 267 | 3.0 | 3.0 | 0.00 | 0.00 | 0.00 | 99 | 1008.6 |
| 20260503174617 | 79 | 265 | 3.0 | 2.0 | 0.00 | 0.00 | 0.00 | 99 | 1008.7 |
| 20260503174521 | 79 | 265 | 2.0 | 2.0 | 0.00 | 0.00 | 0.00 | 99 | 1008.7 |
| 20260503174417 | 79 | 265 | 2.0 | 3.0 | 0.00 | 0.00 | 0.00 | 99 | 1008.7 |
| 20260503174317 | 79 | 265 | 3.0 | 2.0 | 0.00 | 0.00 | 0.00 | 99 | 1008.7 |
| 20260503174217 | 79 | 265 | 2.0 | 2.0 | 0.00 | 0.00 | 0.00 | 99 | 1008.7 |
| 20260503174117 | 79 | 265 | 2.0 | 2.0 | 0.00 | 0.00 | 0.00 | 99 | 1008.7 |
| 20260503174017 | 79 | 265 | 2.0 | 3.0 | 0.00 | 0.00 | 0.00 | 99 | 1008.7 |
| 20260503173917 | 79 | 265 | 3.0 | 3.0 | 0.00 | 0.00 | 0.00 | 99 | 1008.7 |
| 20260503173817 | 79 | 265 | 3.0 | 2.0 | 0.00 | 0.00 | 0.00 | 99 | 1008.7 |
| 20260503173717 | 79 | 269 | 2.0 | 3.0 | 0.00 | 0.00 | 0.00 | 99 | 1008.7 |
| 20260503173617 | 79 | 269 | 3.0 | 3.0 | 0.00 | 0.00 | 0.00 | 99 | 1008.7 |
| 20260503173517 | 79 | 269 | 3.0 | 3.0 | 0.00 | 0.00 | 0.00 | 99 | 1008.7 |
| 20260503173417 | 79 | 270 | 3.0 | 3.0 | 0.00 | 0.00 | 0.00 | 99 | 1008.7 |
| 20260503173317 | 79 | 270 | 3.0 | 3.0 | 0.00 | 0.00 | 0.00 | 99 | 1008.8 |
| 20260503173217 | 79 | 276 | 3.0 | 3.0 | 0.00 | 0.00 | 0.00 | 99 | 1008.8 |
| 20260503173121 | 79 | 277 | 3.0 | 3.0 | 0.00 | 0.00 | 0.00 | 99 | 1008.8 |
| 20260503172917 | 79 | 277 | 4.0 | 2.0 | 0.00 | 0.00 | 0.00 | 99 | 1008.8 |
| 20260503172817 | 79 | 258 | 4.0 | 4.0 | 0.00 | 0.00 | 0.00 | 99 | 1008.8 |
| 20260503172717 | 79 | 244 | 4.0 | 3.0 | 0.00 | 0.00 | 0.00 | 99 | 1008.8 |
| 20260503172617 | 79 | 249 | 3.0 | 2.0 | 0.00 | 0.00 | 0.00 | 99 | 1008.8 |
| 20260503172517 | 79 | 239 | 2.0 | 1.0 | 0.00 | 0.00 | 0.00 | 99 | 1008.8 |
| 20260503172417 | 79 | 236 | 1.0 | 1.0 | 0.00 | 0.00 | 0.00 | 99 | 1008.8 |
| 20260503172317 | 79 | 235 | 1.0 | 2.0 | 0.00 | 0.00 | 0.00 | 99 | 1008.8 |
| 20260503172217 | 79 | 235 | 2.0 | 2.0 | 0.00 | 0.00 | 0.00 | 99 | 1008.8 |
| 20260503172117 | 79 | 235 | 2.0 | 2.0 | 0.00 | 0.00 | 0.00 | 99 | 1008.8 |
| 20260503172016 | 79 | 235 | 2.0 | 2.0 | 0.00 | 0.00 | 0.00 | 99 | 1008.8 |
| 20260503171919 | 79 | 232 | 2.0 | 2.0 | 0.00 | 0.00 | 0.00 | 99 | 1008.8 |
| 20260503171817 | 79 | 232 | 1.0 | 2.0 | 0.00 | 0.00 | 0.00 | 99 | 1008.8 |
| 20260503171717 | 79 | 232 | 2.0 | 2.0 | 0.00 | 0.00 | 0.00 | 99 | 1008.8 |
| 20260503171616 | 79 | 236 | 2.0 | 2.0 | 0.00 | 0.00 | 0.00 | 99 | 1008.8 |
| 20260503171517 | 79 | 236 | 2.0 | 2.0 | 0.00 | 0.00 | 0.00 | 99 | 1008.8 |
| 20260503171417 | 80 | 236 | 2.0 | 2.0 | 0.00 | 0.00 | 0.00 | 99 | 1008.8 |
| 20260503171317 | 80 | 236 | 2.0 | 2.0 | 0.00 | 0.00 | 0.00 | 99 | 1008.8 |
| 20260503171216 | 79 | 244 | 2.0 | 2.0 | 0.00 | 0.00 | 0.00 | 99 | 1008.8 |
| 20260503171118 | 80 | 244 | 2.0 | 2.0 | 0.00 | 0.00 | 0.00 | 99 | 1008.8 |
| 20260503171017 | 80 | 244 | 2.0 | 2.0 | 0.00 | 0.00 | 0.00 | 99 | 1008.9 |
| 20260503170917 | 80 | 244 | 2.0 | 1.0 | 0.00 | 0.00 | 0.00 | 99 | 1008.9 |
| 20260503170817 | 80 | 244 | 1.0 | 1.0 | 0.00 | 0.00 | 0.00 | 99 | 1008.9 |
| 20260503170717 | 80 | 244 | 1.0 | 2.0 | 0.00 | 0.00 | 0.00 | 99 | 1008.9 |
| 20260503170616 | 80 | 244 | 2.0 | 2.0 | 0.00 | 0.00 | 0.00 | 99 | 1008.9 |
| 20260503170517 | 80 | 244 | 2.0 | 2.0 | 0.00 | 0.00 | 0.00 | 99 | 1008.9 |
| 20260503170416 | 80 | 244 | 2.0 | 2.0 | 0.00 | 0.00 | 0.00 | 99 | 1008.9 |
| 20260503170317 | 80 | 244 | 2.0 | 2.0 | 0.00 | 0.00 | 0.00 | 99 | 1008.9 |
| 20260503170216 | 80 | 244 | 2.0 | 2.0 | 0.00 | 0.00 | 0.00 | 99 | 1009.0 |
| 20260503170117 | 80 | 244 | 2.0 | 2.0 | 0.00 | 0.00 | 0.00 | 99 | 1009.0 |